Observation data for Doole 3WNW on 03/05/2021      Previous  Date  Next       Current Mesonet Observations  Soil Data  Daily Summary Page  Observations in Plain Language
KDO2 050600Z 20008KT 15/10 A2991 RMK A01 T01480099  RH  072%=      5-min Rain = 0
KDO2 050601Z 20008KT 15/10 A2991 RMK A01 T01490099  RH  072%=      5-min Rain = 0
KDO2 050602Z 20008KT 15/10 A2991 RMK A01 T01510099  RH  071%=      5-min Rain = 0
KDO2 050603Z 20009KT 15/10 A2991 RMK A01 T01520099  RH  071%=      5-min Rain = 0
KDO2 050604Z 20008KT 15/10 A2991 RMK A01 T01520099  RH  070%=      5-min Rain = 0
KDO2 050605Z 20008KT 15/10 A2991 RMK A01 T01520099  RH  071%=      5-min Rain = 0
KDO2 050606Z 20010KT 15/10 A2991 RMK A01 T01520099  RH  071%=      5-min Rain = 0
KDO2 050607Z 20009KT 15/10 A2991 RMK A01 T01540100  RH  070%=      5-min Rain = 0
KDO2 050608Z 20009KT 16/10 A2991 RMK A01 T01550101  RH  070%=      5-min Rain = 0
KDO2 050609Z 20008KT 16/10 A2991 RMK A01 T01560100  RH  069%=      5-min Rain = 0
KDO2 050610Z 21009KT 16/10 A2991 RMK A01 T01560100  RH  069%=      5-min Rain = 0
KDO2 050611Z 21007KT 16/10 A2991 RMK A01 T01560101  RH  070%=      5-min Rain = 0
KDO2 050612Z 22007KT 16/10 A2991 RMK A01 T01560100  RH  070%=      5-min Rain = 0
KDO2 050613Z 27005KT 16/10 A2991 RMK A01 T01560099  RH  069%=      5-min Rain = 0
KDO2 050614Z 28003KT 15/09 A2991 RMK A01 T01520093  RH  068%=      5-min Rain = 0
KDO2 050615Z 27003KT 15/09 A2991 RMK A01 T01480091  RH  069%=      5-min Rain = 0
KDO2 050616Z 25003KT 15/09 A2991 RMK A01 T01460092  RH  070%=      5-min Rain = 0
KDO2 050617Z 23004KT 15/09 A2991 RMK A01 T01460094  RH  071%=      5-min Rain = 0
KDO2 050618Z 24004KT 15/10 A2991 RMK A01 T01460095  RH  072%=      5-min Rain = 0
KDO2 050619Z 23004KT 15/10 A2991 RMK A01 T01470096  RH  071%=      5-min Rain = 0
KDO2 050620Z 24004KT 15/10 A2991 RMK A01 T01480096  RH  071%=      5-min Rain = 0
KDO2 050621Z 24005KT 15/10 A2991 RMK A01 T01480096  RH  071%=      5-min Rain = 0
KDO2 050622Z 24004KT 15/10 A2991 RMK A01 T01490098  RH  071%=      5-min Rain = 0
KDO2 050623Z 24005KT 15/10 A2991 RMK A01 T01500097  RH  070%=      5-min Rain = 0
KDO2 050624Z 25005KT 15/10 A2991 RMK A01 T01500098  RH  071%=      5-min Rain = 0
KDO2 050625Z 24006KT 15/10 A2991 RMK A01 T01510099  RH  071%=      5-min Rain = 0
KDO2 050626Z 24006KT 15/10 A2991 RMK A01 T01510099  RH  071%=      5-min Rain = 0
KDO2 050627Z 23007KT 15/10 A299 RMK A01 T01510100  RH  071%=      5-min Rain = 0
KDO2 050628Z 23006KT 15/10 A299 RMK A01 T01530101  RH  071%=      5-min Rain = 0
KDO2 050629Z 23006KT 15/10 A299 RMK A01 T01540101  RH  070%=      5-min Rain = 0
KDO2 050630Z 22007KT 15/10 A299 RMK A01 T01540101  RH  070%=      5-min Rain = 0
KDO2 050631Z 22007KT 15/10 A299 RMK A01 T01540101  RH  070%=      5-min Rain = 0
KDO2 050632Z 22007KT 15/10 A299 RMK A01 T01540101  RH  070%=      5-min Rain = 0
KDO2 050633Z 22006KT 16/10 A299 RMK A01 T01550101  RH  070%=      5-min Rain = 0
KDO2 050634Z 22007KT 16/10 A299 RMK A01 T01550100  RH  070%=      5-min Rain = 0
KDO2 050635Z 23007KT 15/10 A299 RMK A01 T01540100  RH  070%=      5-min Rain = 0
KDO2 050636Z 23007KT 15/10 A299 RMK A01 T01540100  RH  070%=      5-min Rain = 0
KDO2 050637Z 23006KT 16/10 A299 RMK A01 T01550101  RH  070%=      5-min Rain = 0
KDO2 050638Z 23006KT 16/10 A299 RMK A01 T01550100  RH  070%=      5-min Rain = 0
KDO2 050639Z 23007KT 15/10 A299 RMK A01 T01540100  RH  070%=      5-min Rain = 0
KDO2 050640Z 23006KT 15/10 A299 RMK A01 T01530100  RH  070%=      5-min Rain = 0
KDO2 050641Z 22007KT 15/10 A299 RMK A01 T01530099  RH  070%=      5-min Rain = 0
KDO2 050642Z 23006KT 15/10 A299 RMK A01 T01520100  RH  071%=      5-min Rain = 0
KDO2 050643Z 23007KT 15/10 A299 RMK A01 T01530100  RH  070%=      5-min Rain = 0
KDO2 050644Z 23007KT 15/10 A299 RMK A01 T01520099  RH  071%=      5-min Rain = 0
KDO2 050645Z 23007KT 15/10 A299 RMK A01 T01520100  RH  071%=      5-min Rain = 0
KDO2 050646Z 23007KT 15/10 A299 RMK A01 T01530101  RH  071%=      5-min Rain = 0
KDO2 050647Z 24007KT 15/10 A299 RMK A01 T01540100  RH  070%=      5-min Rain = 0
KDO2 050648Z 23007KT 15/10 A299 RMK A01 T01520099  RH  070%=      5-min Rain = 0
KDO2 050649Z 22007KT 15/10 A299 RMK A01 T01510099  RH  071%=      5-min Rain = 0
KDO2 050650Z 22009KT 15/10 A299 RMK A01 T01510100  RH  071%=      5-min Rain = 0
KDO2 050651Z 22009KT 15/10 A299 RMK A01 T01510100  RH  071%=      5-min Rain = 0
KDO2 050652Z 21010KT 15/10 A299 RMK A01 T01520100  RH  071%=      5-min Rain = 0
KDO2 050653Z 22010KT 15/10 A299 RMK A01 T01530101  RH  071%=      5-min Rain = 0
KDO2 050654Z 21009KT 15/10 A299 RMK A01 T01530101  RH  071%=      5-min Rain = 0
KDO2 050655Z 22009KT 15/10 A299 RMK A01 T01530100  RH  071%=      5-min Rain = 0
KDO2 050656Z 22010KT 15/10 A299 RMK A01 T01520101  RH  071%=      5-min Rain = 0
KDO2 050657Z 22009KT 15/10 A299 RMK A01 T01520100  RH  071%=      5-min Rain = 0
KDO2 050658Z 22010KT 15/10 A299 RMK A01 T01530101  RH  071%=      5-min Rain = 0
KDO2 050659Z 22011KT 15/10 A299 RMK A01 T01530101  RH  071%=      5-min Rain = 0
KDO2 050700Z 22011KT 15/10 A299 RMK A01 T01530101  RH  071%=      5-min Rain = 0
KDO2 050701Z 22011KT 15/10 A299 RMK A01 T01530101  RH  071%=      5-min Rain = 0
KDO2 050702Z 22010KT 15/10 A299 RMK A01 T01540101  RH  071%=      5-min Rain = 0
KDO2 050703Z 23010KT 15/10 A299 RMK A01 T01540101  RH  071%=      5-min Rain = 0
KDO2 050704Z 23009KT 15/10 A299 RMK A01 T01540101  RH  071%=      5-min Rain = 0
KDO2 050705Z 23008KT 15/10 A299 RMK A01 T01530101  RH  071%=      5-min Rain = 0
KDO2 050706Z 23008KT 15/10 A299 RMK A01 T01530101  RH  071%=      5-min Rain = 0
KDO2 050707Z 24007KT 15/10 A299 RMK A01 T01530100  RH  071%=      5-min Rain = 0
KDO2 050708Z 24007KT 15/10 A299 RMK A01 T01520100  RH  071%=      5-min Rain = 0
KDO2 050709Z 25007KT 15/10 A299 RMK A01 T01520100  RH  071%=      5-min Rain = 0
KDO2 050710Z 25006KT 15/10 A299 RMK A01 T01520100  RH  071%=      5-min Rain = 0
KDO2 050711Z 25006KT 15/10 A299 RMK A01 T01510100  RH  071%=      5-min Rain = 0
KDO2 050712Z 25006KT 15/10 A299 RMK A01 T01500100  RH  072%=      5-min Rain = 0
KDO2 050713Z 26005KT 15/10 A299 RMK A01 T01500100  RH  072%=      5-min Rain = 0
KDO2 050714Z 29005KT 15/10 A299 RMK A01 T01480096  RH  071%=      5-min Rain = 0
KDO2 050715Z 32005KT 14/09 A299 RMK A01 T01440092  RH  071%=      5-min Rain = 0
KDO2 050716Z 33006KT 14/09 A2991 RMK A01 T01400089  RH  071%=      5-min Rain = 0
KDO2 050717Z 32008KT 14/09 A2991 RMK A01 T01350088  RH  073%=      5-min Rain = 0
KDO2 050718Z 32009KT 13/09 A2991 RMK A01 T01310087  RH  075%=      5-min Rain = 0
KDO2 050719Z 32010KT 13/09 A2991 RMK A01 T01290088  RH  076%=      5-min Rain = 0
KDO2 050720Z 32009KT 13/09 A2991 RMK A01 T01280090  RH  078%=      5-min Rain = 0
KDO2 050721Z 31009KT 13/09 A2991 RMK A01 T01290091  RH  077%=      5-min Rain = 0
KDO2 050722Z 30008KT 13/09 A2991 RMK A01 T01300091  RH  077%=      5-min Rain = 0
KDO2 050723Z 30006KT 13/09 A2991 RMK A01 T01320092  RH  077%=      5-min Rain = 0
KDO2 050724Z 31005KT 13/09 A2991 RMK A01 T01320090  RH  076%=      5-min Rain = 0
KDO2 050725Z 34006KT 13/09 A2991 RMK A01 T01310088  RH  075%=      5-min Rain = 0
KDO2 050726Z 35008KT 13/08 A2991 RMK A01 T01270084  RH  075%=      5-min Rain = 0
KDO2 050727Z 35007KT 12/08 A2991 RMK A01 T01230083  RH  076%=      5-min Rain = 0
KDO2 050728Z 34008KT 12/08 A2991 RMK A01 T01210083  RH  078%=      5-min Rain = 0
KDO2 050729Z 33006KT 12/09 A2991 RMK A01 T01190085  RH  079%=      5-min Rain = 0
KDO2 050730Z 33006KT 12/09 A2991 RMK A01 T01190085  RH  080%=      5-min Rain = 0
KDO2 050731Z 32006KT 12/09 A2991 RMK A01 T01190086  RH  080%=      5-min Rain = 0
KDO2 050732Z 31006KT 12/09 A2992 RMK A01 T01190085  RH  080%=      5-min Rain = 0
KDO2 050733Z 30007KT 12/09 A2992 RMK A01 T01190085  RH  080%=      5-min Rain = 0
KDO2 050734Z 29007KT 12/09 A2991 RMK A01 T01200088  RH  081%=      5-min Rain = 0
KDO2 050735Z 29007KT 12/09 A2991 RMK A01 T01220090  RH  080%=      5-min Rain = 0
KDO2 050736Z 30007KT 13/09 A2991 RMK A01 T01250090  RH  080%=      5-min Rain = 0
KDO2 050737Z 30008KT 13/09 A2991 RMK A01 T01260090  RH  079%=      5-min Rain = 0
KDO2 050738Z 29007KT 13/09 A2991 RMK A01 T01260089  RH  078%=      5-min Rain = 0
KDO2 050739Z 29006KT 13/09 A2991 RMK A01 T01270089  RH  078%=      5-min Rain = 0
KDO2 050740Z 29007KT 13/09 A2992 RMK A01 T01260089  RH  078%=      5-min Rain = 0
KDO2 050741Z 29007KT 13/09 A2992 RMK A01 T01260088  RH  077%=      5-min Rain = 0
KDO2 050742Z 29006KT 13/09 A2992 RMK A01 T01250086  RH  077%=      5-min Rain = 0
KDO2 050743Z 30006KT 12/08 A2992 RMK A01 T01230084  RH  077%=      5-min Rain = 0
KDO2 050744Z 30006KT 12/08 A2992 RMK A01 T01210084  RH  078%=      5-min Rain = 0
KDO2 050745Z 30005KT 12/09 A2992 RMK A01 T01210086  RH  079%=      5-min Rain = 0
KDO2 050746Z 30005KT 12/09 A2992 RMK A01 T01220087  RH  079%=      5-min Rain = 0
KDO2 050747Z 30006KT 12/09 A2992 RMK A01 T01230087  RH  079%=      5-min Rain = 0
KDO2 050748Z 30006KT 12/09 A2992 RMK A01 T01230088  RH  079%=      5-min Rain = 0
KDO2 050749Z 30006KT 12/09 A2992 RMK A01 T01240088  RH  078%=      5-min Rain = 0
KDO2 050750Z 29007KT 13/09 A2992 RMK A01 T01250087  RH  078%=      5-min Rain = 0
KDO2 050751Z 29008KT 13/09 A2992 RMK A01 T01250087  RH  078%=      5-min Rain = 0
KDO2 050752Z 28007KT 12/09 A2992 RMK A01 T01240087  RH  078%=      5-min Rain = 0
KDO2 050753Z 28007KT 12/09 A2992 RMK A01 T01240087  RH  078%=      5-min Rain = 0
KDO2 050754Z 28007KT 13/09 A2992 RMK A01 T01250088  RH  078%=      5-min Rain = 0
KDO2 050755Z 28007KT 13/09 A2992 RMK A01 T01260088  RH  078%=      5-min Rain = 0
KDO2 050756Z 28008KT 13/09 A2992 RMK A01 T01250088  RH  078%=      5-min Rain = 0
KDO2 050757Z 28008KT 13/09 A2992 RMK A01 T01260087  RH  077%=      5-min Rain = 0
KDO2 050758Z 28007KT 13/09 A2992 RMK A01 T01250087  RH  077%=      5-min Rain = 0
KDO2 050759Z 27007KT 13/09 A2992 RMK A01 T01250088  RH  078%=      5-min Rain = 0
KDO2 050800Z 27007KT 12/09 A2993 RMK A01 T01240089  RH  079%=      5-min Rain = 0
KDO2 050801Z 27007KT 12/09 A2993 RMK A01 T01240089  RH  079%=      5-min Rain = 0
KDO2 050802Z 27008KT 12/09 A2993 RMK A01 T01240090  RH  080%=      5-min Rain = 0
KDO2 050803Z 27008KT 13/09 A2993 RMK A01 T01250091  RH  080%=      5-min Rain = 0
KDO2 050804Z 27010KT 13/09 A2993 RMK A01 T01260092  RH  080%=      5-min Rain = 0
KDO2 050805Z 27010KT 13/09 A2993 RMK A01 T01280093  RH  079%=      5-min Rain = 0
KDO2 050806Z 27010KT 13/09 A2993 RMK A01 T01290092  RH  078%=      5-min Rain = 0
KDO2 050807Z 27010KT 13/09 A2993 RMK A01 T01300092  RH  078%=      5-min Rain = 0
KDO2 050808Z 27010KT 13/09 A2993 RMK A01 T01300092  RH  077%=      5-min Rain = 0
KDO2 050809Z 27010KT 13/09 A2993 RMK A01 T01300090  RH  077%=      5-min Rain = 0
KDO2 050810Z 27011KT 13/09 A2993 RMK A01 T01300090  RH  077%=      5-min Rain = 0
KDO2 050811Z 28011KT 13/09 A2993 RMK A01 T01310090  RH  076%=      5-min Rain = 0
KDO2 050812Z 27011KT 13/09 A2993 RMK A01 T01310090  RH  076%=      5-min Rain = 0
KDO2 050813Z 27011KT 13/09 A2993 RMK A01 T01320091  RH  076%=      5-min Rain = 0
KDO2 050814Z 26012KT 13/09 A2993 RMK A01 T01320090  RH  076%=      5-min Rain = 0
KDO2 050815Z 26011KT 13/09 A2993 RMK A01 T01320090  RH  076%=      5-min Rain = 0
KDO2 050816Z 26012KT 13/09 A2993 RMK A01 T01320091  RH  076%=      5-min Rain = 0
KDO2 050817Z 27012KT 13/09 A2993 RMK A01 T01320091  RH  076%=      5-min Rain = 0
KDO2 050818Z 26011KT 13/09 A2993 RMK A01 T01340091  RH  075%=      5-min Rain = 0
KDO2 050819Z 26011KT 13/09 A2993 RMK A01 T01340090  RH  075%=      5-min Rain = 0
KDO2 050820Z 26011KT 13/09 A2993 RMK A01 T01330090  RH  075%=      5-min Rain = 0
KDO2 050821Z 26011KT 13/09 A2993 RMK A01 T01320090  RH  076%=      5-min Rain = 0
KDO2 050822Z 26010KT 13/09 A2993 RMK A01 T01320091  RH  076%=      5-min Rain = 0
KDO2 050823Z 26012KT 13/09 A2993 RMK A01 T01320090  RH  076%=      5-min Rain = 0
KDO2 050824Z 26011KT 13/09 A2993 RMK A01 T01330091  RH  076%=      5-min Rain = 0
KDO2 050825Z 26010KT 13/09 A2993 RMK A01 T01330090  RH  075%=      5-min Rain = 0
KDO2 050826Z 26011KT 13/09 A2993 RMK A01 T01330090  RH  075%=      5-min Rain = 0
KDO2 050827Z 26011KT 13/09 A2993 RMK A01 T01330090  RH  075%=      5-min Rain = 0
KDO2 050828Z 26010KT 13/09 A2993 RMK A01 T01340091  RH  075%=      5-min Rain = 0
KDO2 050829Z 25011KT 14/09 A2993 RMK A01 T01350091  RH  074%=      5-min Rain = 0
KDO2 050830Z 26011KT 14/09 A2993 RMK A01 T01350090  RH  074%=      5-min Rain = 0
KDO2 050831Z 25009KT 14/09 A2993 RMK A01 T01350090  RH  074%=      5-min Rain = 0
KDO2 050832Z 25010KT 13/09 A2993 RMK A01 T01340089  RH  074%=      5-min Rain = 0
KDO2 050833Z 25010KT 13/09 A2993 RMK A01 T01340089  RH  074%=      5-min Rain = 0
KDO2 050834Z 25009KT 13/09 A2993 RMK A01 T01340089  RH  074%=      5-min Rain = 0
KDO2 050835Z 25010KT 13/09 A2993 RMK A01 T01340089  RH  074%=      5-min Rain = 0
KDO2 050836Z 25010KT 13/09 A2993 RMK A01 T01340089  RH  074%=      5-min Rain = 0
KDO2 050837Z 25011KT 13/09 A2993 RMK A01 T01340088  RH  074%=      5-min Rain = 0
KDO2 050838Z 25010KT 13/09 A2993 RMK A01 T01330088  RH  074%=      5-min Rain = 0
KDO2 050839Z 25011KT 13/09 A2993 RMK A01 T01330088  RH  074%=      5-min Rain = 0
KDO2 050840Z 25011KT 13/09 A2993 RMK A01 T01330088  RH  074%=      5-min Rain = 0
KDO2 050841Z 25011KT 13/09 A2993 RMK A01 T01330088  RH  074%=      5-min Rain = 0
KDO2 050842Z 25011KT 13/09 A2993 RMK A01 T01330087  RH  074%=      5-min Rain = 0
KDO2 050843Z 25010KT 13/09 A2993 RMK A01 T01320087  RH  074%=      5-min Rain = 0
KDO2 050844Z 25010KT 13/09 A2993 RMK A01 T01320087  RH  074%=      5-min Rain = 0
KDO2 050845Z 26010KT 13/09 A2993 RMK A01 T01320087  RH  074%=      5-min Rain = 0
KDO2 050846Z 25010KT 13/09 A2993 RMK A01 T01320087  RH  074%=      5-min Rain = 0
KDO2 050847Z 25010KT 13/09 A2993 RMK A01 T01320086  RH  074%=      5-min Rain = 0
KDO2 050848Z 25010KT 13/09 A2993 RMK A01 T01310086  RH  074%=      5-min Rain = 0
KDO2 050849Z 25010KT 13/09 A2993 RMK A01 T01310086  RH  074%=      5-min Rain = 0
KDO2 050850Z 25010KT 13/09 A2993 RMK A01 T01310086  RH  074%=      5-min Rain = 0
KDO2 050851Z 25010KT 13/09 A2993 RMK A01 T01300085  RH  074%=      5-min Rain = 0
KDO2 050852Z 25009KT 13/09 A2993 RMK A01 T01290085  RH  074%=      5-min Rain = 0
KDO2 050853Z 25010KT 13/08 A2993 RMK A01 T01290084  RH  074%=      5-min Rain = 0
KDO2 050854Z 25010KT 13/08 A2993 RMK A01 T01280084  RH  074%=      5-min Rain = 0
KDO2 050855Z 25009KT 13/08 A2993 RMK A01 T01280084  RH  074%=      5-min Rain = 0
KDO2 050856Z 25010KT 13/08 A2993 RMK A01 T01280083  RH  074%=      5-min Rain = 0
KDO2 050857Z 25010KT 13/08 A2993 RMK A01 T01280083  RH  074%=      5-min Rain = 0
KDO2 050858Z 25009KT 13/08 A2993 RMK A01 T01280082  RH  074%=      5-min Rain = 0
KDO2 050859Z 25009KT 13/08 A2993 RMK A01 T01280082  RH  073%=      5-min Rain = 0
KDO2 050900Z 25009KT 13/08 A2993 RMK A01 T01280081  RH  073%=      5-min Rain = 0
KDO2 050901Z 26008KT 13/08 A2993 RMK A01 T01270080  RH  073%=      5-min Rain = 0
KDO2 050902Z 26007KT 13/08 A2993 RMK A01 T01270080  RH  073%=      5-min Rain = 0
KDO2 050903Z 26008KT 13/08 A2993 RMK A01 T01260079  RH  073%=      5-min Rain = 0
KDO2 050904Z 25009KT 13/08 A2993 RMK A01 T01260079  RH  073%=      5-min Rain = 0
KDO2 050905Z 25009KT 13/08 A2993 RMK A01 T01260079  RH  073%=      5-min Rain = 0
KDO2 050906Z 25009KT 13/08 A2993 RMK A01 T01260079  RH  073%=      5-min Rain = 0
KDO2 050907Z 25009KT 13/08 A2993 RMK A01 T01260078  RH  073%=      5-min Rain = 0
KDO2 050908Z 25009KT 13/08 A2993 RMK A01 T01250078  RH  073%=      5-min Rain = 0
KDO2 050909Z 24010KT 13/08 A2992 RMK A01 T01250078  RH  073%=      5-min Rain = 0
KDO2 050910Z 24010KT 13/08 A2992 RMK A01 T01250078  RH  073%=      5-min Rain = 0
KDO2 050911Z 25009KT 13/08 A2992 RMK A01 T01260078  RH  072%=      5-min Rain = 0
KDO2 050912Z 25010KT 13/08 A2992 RMK A01 T01260077  RH  072%=      5-min Rain = 0
KDO2 050913Z 25010KT 13/08 A2992 RMK A01 T01250077  RH  072%=      5-min Rain = 0
KDO2 050914Z 25010KT 13/08 A2992 RMK A01 T01250076  RH  072%=      5-min Rain = 0
KDO2 050915Z 25010KT 13/08 A2992 RMK A01 T01250076  RH  072%=      5-min Rain = 0
KDO2 050916Z 25009KT 13/08 A2992 RMK A01 T01250075  RH  072%=      5-min Rain = 0
KDO2 050917Z 25010KT 13/08 A2992 RMK A01 T01250075  RH  072%=      5-min Rain = 0
KDO2 050918Z 25010KT 12/08 A2993 RMK A01 T01240075  RH  072%=      5-min Rain = 0
KDO2 050919Z 25010KT 12/08 A2993 RMK A01 T01230075  RH  072%=      5-min Rain = 0
KDO2 050920Z 25010KT 12/07 A2993 RMK A01 T01230074  RH  072%=      5-min Rain = 0
KDO2 050921Z 25009KT 12/07 A2993 RMK A01 T01220074  RH  073%=      5-min Rain = 0
KDO2 050922Z 26009KT 12/07 A2993 RMK A01 T01210074  RH  073%=      5-min Rain = 0
KDO2 050923Z 26009KT 12/07 A2993 RMK A01 T01200073  RH  073%=      5-min Rain = 0
KDO2 050924Z 26009KT 12/07 A2993 RMK A01 T01190072  RH  073%=      5-min Rain = 0
KDO2 050925Z 25008KT 12/07 A2993 RMK A01 T01180072  RH  073%=      5-min Rain = 0
KDO2 050926Z 25008KT 12/07 A2993 RMK A01 T01170071  RH  073%=      5-min Rain = 0
KDO2 050927Z 25008KT 12/07 A2993 RMK A01 T01160071  RH  074%=      5-min Rain = 0
KDO2 050928Z 25008KT 12/07 A2993 RMK A01 T01150071  RH  074%=      5-min Rain = 0
KDO2 050929Z 25008KT 12/07 A2993 RMK A01 T01150071  RH  075%=      5-min Rain = 0
KDO2 050930Z 25008KT 12/07 A2993 RMK A01 T01150072  RH  075%=      5-min Rain = 0
KDO2 050931Z 25008KT 11/07 A2993 RMK A01 T01140071  RH  075%=      5-min Rain = 0
KDO2 050932Z 25007KT 11/07 A2993 RMK A01 T01130071  RH  075%=      5-min Rain = 0
KDO2 050933Z 25007KT 11/07 A2993 RMK A01 T01130071  RH  076%=      5-min Rain = 0
KDO2 050934Z 25008KT 11/07 A2993 RMK A01 T01120071  RH  076%=      5-min Rain = 0
KDO2 050935Z 26007KT 11/07 A2993 RMK A01 T01120071  RH  076%=      5-min Rain = 0
KDO2 050936Z 25007KT 11/07 A2993 RMK A01 T01110070  RH  076%=      5-min Rain = 0
KDO2 050937Z 26007KT 11/07 A2993 RMK A01 T01110071  RH  076%=      5-min Rain = 0
KDO2 050938Z 26007KT 11/07 A2993 RMK A01 T01110070  RH  076%=      5-min Rain = 0
KDO2 050939Z 26007KT 11/07 A2993 RMK A01 T01110070  RH  076%=      5-min Rain = 0
KDO2 050940Z 26007KT 11/07 A2993 RMK A01 T01110071  RH  076%=      5-min Rain = 0
KDO2 050941Z 26007KT 11/07 A2993 RMK A01 T01110070  RH  076%=      5-min Rain = 0
KDO2 050942Z 26007KT 11/07 A2993 RMK A01 T01110070  RH  076%=      5-min Rain = 0
KDO2 050943Z 26008KT 11/07 A2993 RMK A01 T01110070  RH  076%=      5-min Rain = 0
KDO2 050944Z 26008KT 11/07 A2993 RMK A01 T01110070  RH  076%=      5-min Rain = 0
KDO2 050945Z 26008KT 11/07 A2993 RMK A01 T01110070  RH  076%=      5-min Rain = 0
KDO2 050946Z 26008KT 11/07 A2993 RMK A01 T01110069  RH  076%=      5-min Rain = 0
KDO2 050947Z 26008KT 11/07 A2993 RMK A01 T01110069  RH  076%=      5-min Rain = 0
KDO2 050948Z 26008KT 11/07 A2993 RMK A01 T01110069  RH  075%=      5-min Rain = 0
KDO2 050949Z 26008KT 11/07 A2993 RMK A01 T01110069  RH  075%=      5-min Rain = 0
KDO2 050950Z 26008KT 11/07 A2993 RMK A01 T01100068  RH  075%=      5-min Rain = 0
KDO2 050951Z 26008KT 11/07 A2993 RMK A01 T01090067  RH  075%=      5-min Rain = 0
KDO2 050952Z 26008KT 11/07 A2993 RMK A01 T01090067  RH  075%=      5-min Rain = 0
KDO2 050953Z 26008KT 11/07 A2993 RMK A01 T01090067  RH  075%=      5-min Rain = 0
KDO2 050954Z 26008KT 11/07 A2993 RMK A01 T01080067  RH  075%=      5-min Rain = 0
KDO2 050955Z 27008KT 11/07 A2993 RMK A01 T01080066  RH  075%=      5-min Rain = 0
KDO2 050956Z 27008KT 11/07 A2993 RMK A01 T01070065  RH  075%=      5-min Rain = 0
KDO2 050957Z 27008KT 11/07 A2993 RMK A01 T01070065  RH  075%=      5-min Rain = 0
KDO2 050958Z 26008KT 11/07 A2993 RMK A01 T01060065  RH  075%=      5-min Rain = 0
KDO2 050959Z 26008KT 11/06 A2993 RMK A01 T01060064  RH  075%=      5-min Rain = 0
KDO2 051000Z 27008KT 11/06 A2993 RMK A01 T01060064  RH  075%=      5-min Rain = 0
KDO2 051001Z 27008KT 11/06 A2993 RMK A01 T01050063  RH  075%=      5-min Rain = 0
KDO2 051002Z 27008KT 11/06 A2993 RMK A01 T01050063  RH  075%=      5-min Rain = 0
KDO2 051003Z 27008KT 11/06 A2993 RMK A01 T01050063  RH  075%=      5-min Rain = 0
KDO2 051004Z 27008KT 10/06 A2993 RMK A01 T01040062  RH  075%=      5-min Rain = 0
KDO2 051005Z 27008KT 10/06 A2993 RMK A01 T01040061  RH  075%=      5-min Rain = 0
KDO2 051006Z 27008KT 10/06 A2993 RMK A01 T01030060  RH  075%=      5-min Rain = 0
KDO2 051007Z 27009KT 10/06 A2993 RMK A01 T01010060  RH  075%=      5-min Rain = 0
KDO2 051008Z 28009KT 10/06 A2993 RMK A01 T01010060  RH  076%=      5-min Rain = 0
KDO2 051009Z 28008KT 10/06 A2993 RMK A01 T01030060  RH  075%=      5-min Rain = 0
KDO2 051010Z 28009KT 10/06 A2993 RMK A01 T01040058  RH  073%=      5-min Rain = 0
KDO2 051011Z 28009KT 10/06 A2993 RMK A01 T01030056  RH  073%=      5-min Rain = 0
KDO2 051012Z 28009KT 10/05 A2993 RMK A01 T01030054  RH  072%=      5-min Rain = 0
KDO2 051013Z 27009KT 10/05 A2993 RMK A01 T01040053  RH  071%=      5-min Rain = 0
KDO2 051014Z 27009KT 11/05 A2993 RMK A01 T01050053  RH  070%=      5-min Rain = 0
KDO2 051015Z 27009KT 11/05 A2993 RMK A01 T01060053  RH  070%=      5-min Rain = 0
KDO2 051016Z 27009KT 11/05 A2993 RMK A01 T01060053  RH  069%=      5-min Rain = 0
KDO2 051017Z 27009KT 11/05 A2993 RMK A01 T01080053  RH  069%=      5-min Rain = 0
KDO2 051018Z 27009KT 11/05 A2993 RMK A01 T01090053  RH  068%=      5-min Rain = 0
KDO2 051019Z 27009KT 11/05 A2993 RMK A01 T01100052  RH  068%=      5-min Rain = 0
KDO2 051020Z 26009KT 11/05 A2993 RMK A01 T01100052  RH  067%=      5-min Rain = 0
KDO2 051021Z 27009KT 11/05 A2993 RMK A01 T01090052  RH  068%=      5-min Rain = 0
KDO2 051022Z 26009KT 11/05 A2993 RMK A01 T01080052  RH  068%=      5-min Rain = 0
KDO2 051023Z 26009KT 11/05 A2993 RMK A01 T01080052  RH  068%=      5-min Rain = 0
KDO2 051024Z 26009KT 11/05 A2993 RMK A01 T01080051  RH  068%=      5-min Rain = 0
KDO2 051025Z 27009KT 11/05 A2993 RMK A01 T01070051  RH  068%=      5-min Rain = 0
KDO2 051026Z 27009KT 11/05 A2993 RMK A01 T01070050  RH  068%=      5-min Rain = 0
KDO2 051027Z 27009KT 11/05 A2993 RMK A01 T01070048  RH  067%=      5-min Rain = 0
KDO2 051028Z 27008KT 11/05 A2993 RMK A01 T01070047  RH  066%=      5-min Rain = 0
KDO2 051029Z 26009KT 11/05 A2993 RMK A01 T01070046  RH  066%=      5-min Rain = 0
KDO2 051030Z 27009KT 11/05 A2993 RMK A01 T01070046  RH  066%=      5-min Rain = 0
KDO2 051031Z 27009KT 11/04 A2993 RMK A01 T01070044  RH  065%=      5-min Rain = 0
KDO2 051032Z 26010KT 11/04 A2993 RMK A01 T01080043  RH  064%=      5-min Rain = 0
KDO2 051033Z 26010KT 11/04 A2993 RMK A01 T01090043  RH  063%=      5-min Rain = 0
KDO2 051034Z 26009KT 11/04 A2993 RMK A01 T01100042  RH  063%=      5-min Rain = 0
KDO2 051035Z 27009KT 11/04 A2993 RMK A01 T01100042  RH  063%=      5-min Rain = 0
KDO2 051036Z 27009KT 11/04 A2993 RMK A01 T01090041  RH  063%=      5-min Rain = 0
KDO2 051037Z 27010KT 11/04 A2993 RMK A01 T01090041  RH  063%=      5-min Rain = 0
KDO2 051038Z 27009KT 11/04 A2993 RMK A01 T01090041  RH  063%=      5-min Rain = 0
KDO2 051039Z 27010KT 11/04 A2993 RMK A01 T01090040  RH  062%=      5-min Rain = 0
KDO2 051040Z 27010KT 11/04 A2994 RMK A01 T01100039  RH  062%=      5-min Rain = 0
KDO2 051041Z 27009KT 11/04 A2994 RMK A01 T01100038  RH  061%=      5-min Rain = 0
KDO2 051042Z 27009KT 11/04 A2994 RMK A01 T01100038  RH  061%=      5-min Rain = 0
KDO2 051043Z 27009KT 11/04 A2994 RMK A01 T01070037  RH  062%=      5-min Rain = 0
KDO2 051044Z 27008KT 11/04 A2994 RMK A01 T01050037  RH  063%=      5-min Rain = 0
KDO2 051045Z 28008KT 10/04 A2994 RMK A01 T01040037  RH  063%=      5-min Rain = 0
KDO2 051046Z 28008KT 10/04 A2994 RMK A01 T01030037  RH  063%=      5-min Rain = 0
KDO2 051047Z 28008KT 10/04 A2994 RMK A01 T01030037  RH  063%=      5-min Rain = 0
KDO2 051048Z 28009KT 10/04 A2994 RMK A01 T01030036  RH  063%=      5-min Rain = 0
KDO2 051049Z 28008KT 10/04 A2994 RMK A01 T01030035  RH  063%=      5-min Rain = 0
KDO2 051050Z 27008KT 10/04 A2994 RMK A01 T01020035  RH  063%=      5-min Rain = 0
KDO2 051051Z 27008KT 10/03 A2994 RMK A01 T01010034  RH  063%=      5-min Rain = 0
KDO2 051052Z 27008KT 10/03 A2994 RMK A01 T01010034  RH  063%=      5-min Rain = 0
KDO2 051053Z 27008KT 10/03 A2994 RMK A01 T01010033  RH  062%=      5-min Rain = 0
KDO2 051054Z 27007KT 10/03 A2994 RMK A01 T01010032  RH  062%=      5-min Rain = 0
KDO2 051055Z 26008KT 10/03 A2994 RMK A01 T01000031  RH  062%=      5-min Rain = 0
KDO2 051056Z 26008KT 10/03 A2994 RMK A01 T00990030  RH  062%=      5-min Rain = 0
KDO2 051057Z 26008KT 10/03 A2994 RMK A01 T00990029  RH  062%=      5-min Rain = 0
KDO2 051058Z 26008KT 10/03 A2994 RMK A01 T01000029  RH  061%=      5-min Rain = 0
KDO2 051059Z 26008KT 10/03 A2994 RMK A01 T01010028  RH  061%=      5-min Rain = 0
KDO2 051100Z 26008KT 10/03 A2994 RMK A01 T01010029  RH  061%=      5-min Rain = 0
KDO2 051101Z 26008KT 10/03 A2994 RMK A01 T01010029  RH  061%=      5-min Rain = 0
KDO2 051102Z 26008KT 10/03 A2994 RMK A01 T01020029  RH  061%=      5-min Rain = 0
KDO2 051103Z 26008KT 10/03 A2994 RMK A01 T01000028  RH  061%=      5-min Rain = 0
KDO2 051104Z 26008KT 10/03 A2994 RMK A01 T00990028  RH  061%=      5-min Rain = 0
KDO2 051105Z 26008KT 10/03 A2994 RMK A01 T00990028  RH  061%=      5-min Rain = 0
KDO2 051106Z 27008KT 10/03 A2994 RMK A01 T00990027  RH  061%=      5-min Rain = 0
KDO2 051107Z 27008KT 10/03 A2994 RMK A01 T00990027  RH  061%=      5-min Rain = 0
KDO2 051108Z 27008KT 10/03 A2994 RMK A01 T01000027  RH  060%=      5-min Rain = 0
KDO2 051109Z 27008KT 10/03 A2994 RMK A01 T01000026  RH  060%=      5-min Rain = 0
KDO2 051110Z 27008KT 10/03 A2994 RMK A01 T01000026  RH  060%=      5-min Rain = 0
KDO2 051111Z 27008KT 10/03 A2994 RMK A01 T00990025  RH  060%=      5-min Rain = 0
KDO2 051112Z 27008KT 10/03 A2994 RMK A01 T00970025  RH  060%=      5-min Rain = 0
KDO2 051113Z 27008KT 10/03 A2994 RMK A01 T00970025  RH  061%=      5-min Rain = 0
KDO2 051114Z 27008KT 10/02 A2994 RMK A01 T00970024  RH  061%=      5-min Rain = 0
KDO2 051115Z 26008KT 10/02 A2994 RMK A01 T00960024  RH  061%=      5-min Rain = 0
KDO2 051116Z 26009KT 10/02 A2994 RMK A01 T00960024  RH  061%=      5-min Rain = 0
KDO2 051117Z 26009KT 10/02 A2994 RMK A01 T00960024  RH  061%=      5-min Rain = 0
KDO2 051118Z 26009KT 10/02 A2994 RMK A01 T00960023  RH  060%=      5-min Rain = 0
KDO2 051119Z 26009KT 10/02 A2995 RMK A01 T00960023  RH  060%=      5-min Rain = 0
KDO2 051120Z 26009KT 10/02 A2995 RMK A01 T00970023  RH  060%=      5-min Rain = 0
KDO2 051121Z 26009KT 10/02 A2995 RMK A01 T00960023  RH  060%=      5-min Rain = 0
KDO2 051122Z 26009KT 10/02 A2995 RMK A01 T00960022  RH  060%=      5-min Rain = 0
KDO2 051123Z 26009KT 10/02 A2995 RMK A01 T00960022  RH  060%=      5-min Rain = 0
KDO2 051124Z 26008KT 10/02 A2995 RMK A01 T00980021  RH  059%=      5-min Rain = 0
KDO2 051125Z 27008KT 10/02 A2995 RMK A01 T00980020  RH  059%=      5-min Rain = 0
KDO2 051126Z 27008KT 10/02 A2995 RMK A01 T00980020  RH  058%=      5-min Rain = 0
KDO2 051127Z 26009KT 10/02 A2995 RMK A01 T00980019  RH  058%=      5-min Rain = 0
KDO2 051128Z 27009KT 10/02 A2995 RMK A01 T00980018  RH  058%=      5-min Rain = 0
KDO2 051129Z 26009KT 10/02 A2995 RMK A01 T00980018  RH  058%=      5-min Rain = 0
KDO2 051130Z 26009KT 10/02 A2994 RMK A01 T00970018  RH  058%=      5-min Rain = 0
KDO2 051131Z 26008KT 10/02 A2995 RMK A01 T00970018  RH  058%=      5-min Rain = 0
KDO2 051132Z 26009KT 10/02 A2995 RMK A01 T00970017  RH  058%=      5-min Rain = 0
KDO2 051133Z 26009KT 10/02 A2995 RMK A01 T00960017  RH  058%=      5-min Rain = 0
KDO2 051134Z 26010KT 10/02 A2995 RMK A01 T00960017  RH  058%=      5-min Rain = 0
KDO2 051135Z 26009KT 10/02 A2995 RMK A01 T00960017  RH  058%=      5-min Rain = 0
KDO2 051136Z 26009KT 10/02 A2995 RMK A01 T00960016  RH  057%=      5-min Rain = 0
KDO2 051137Z 27009KT 10/02 A2995 RMK A01 T00960016  RH  057%=      5-min Rain = 0
KDO2 051138Z 27010KT 10/02 A2995 RMK A01 T00970015  RH  057%=      5-min Rain = 0
KDO2 051139Z 27010KT 10/02 A2995 RMK A01 T00970015  RH  057%=      5-min Rain = 0
KDO2 051140Z 27010KT 10/02 A2995 RMK A01 T00980015  RH  056%=      5-min Rain = 0
KDO2 051141Z 27009KT 10/02 A2995 RMK A01 T00970015  RH  057%=      5-min Rain = 0
KDO2 051142Z 27010KT 10/01 A2995 RMK A01 T00960014  RH  057%=      5-min Rain = 0
KDO2 051143Z 27010KT 10/01 A2995 RMK A01 T00960014  RH  057%=      5-min Rain = 0
KDO2 051144Z 27010KT 10/01 A2995 RMK A01 T00970014  RH  056%=      5-min Rain = 0
KDO2 051145Z 27010KT 10/01 A2995 RMK A01 T00970013  RH  056%=      5-min Rain = 0
KDO2 051146Z 26010KT 10/01 A2995 RMK A01 T00970013  RH  056%=      5-min Rain = 0
KDO2 051147Z 26010KT 10/01 A2995 RMK A01 T00970013  RH  056%=      5-min Rain = 0
KDO2 051148Z 26010KT 10/01 A2995 RMK A01 T00980012  RH  055%=      5-min Rain = 0
KDO2 051149Z 26010KT 10/01 A2995 RMK A01 T00980012  RH  055%=      5-min Rain = 0
KDO2 051150Z 26010KT 10/01 A2995 RMK A01 T00980011  RH  055%=      5-min Rain = 0
KDO2 051151Z 26010KT 10/01 A2995 RMK A01 T00980011  RH  055%=      5-min Rain = 0
KDO2 051152Z 26009KT 10/01 A2995 RMK A01 T00980011  RH  055%=      5-min Rain = 0
KDO2 051153Z 27010KT 10/01 A2996 RMK A01 T00980010  RH  054%=      5-min Rain = 0
KDO2 051154Z 26010KT 10/01 A2996 RMK A01 T00980009  RH  054%=      5-min Rain = 0
KDO2 051155Z 26009KT 10/01 A2996 RMK A01 T00980009  RH  054%=      5-min Rain = 0
KDO2 051156Z 26010KT 10/01 A2996 RMK A01 T00970009  RH  054%=      5-min Rain = 0
KDO2 051157Z 26010KT 10/01 A2996 RMK A01 T00970008  RH  054%=      5-min Rain = 0
KDO2 051158Z 26010KT 10/01 A2996 RMK A01 T00980008  RH  053%=      5-min Rain = 0
KDO2 051159Z 26009KT 10/01 A2996 RMK A01 T00980008  RH  054%=      5-min Rain = 0
KDO2 051200Z 26010KT 10/01 A2996 RMK A01 T00970007  RH  053%=      5-min Rain = 0
KDO2 051201Z 26010KT 10/01 A2996 RMK A01 T00970006  RH  053%=      5-min Rain = 0
KDO2 051202Z 26010KT 10/01 A2996 RMK A01 T00970006  RH  053%=      5-min Rain = 0
KDO2 051203Z 26010KT 10/01 A2996 RMK A01 T00970005  RH  053%=      5-min Rain = 0
KDO2 051204Z 26011KT 10/01 A2996 RMK A01 T00970005  RH  052%=      5-min Rain = 0
KDO2 051205Z 26011KT 10/00 A2996 RMK A01 T00980004  RH  052%=      5-min Rain = 0
KDO2 051206Z 26010KT 10/00 A2996 RMK A01 T00980003  RH  052%=      5-min Rain = 0
KDO2 051207Z 27009KT 10/00 A2996 RMK A01 T00980003  RH  051%=      5-min Rain = 0
KDO2 051208Z 26010KT 10/00 A2996 RMK A01 T00990003  RH  051%=      5-min Rain = 0
KDO2 051209Z 26010KT 10/00 A2996 RMK A01 T00990002  RH  051%=      5-min Rain = 0
KDO2 051210Z 26009KT 10/00 A2996 RMK A01 T00990002  RH  051%=      5-min Rain = 0
KDO2 051211Z 27009KT 10/00 A2996 RMK A01 T00980002  RH  051%=      5-min Rain = 0
KDO2 051212Z 27009KT 10/00 A2996 RMK A01 T00980001  RH  051%=      5-min Rain = 0
KDO2 051213Z 26009KT 10/00 A2996 RMK A01 T00970001  RH  051%=      5-min Rain = 0
KDO2 051214Z 26010KT 10/00 A2996 RMK A01 T00970001  RH  051%=      5-min Rain = 0
KDO2 051215Z 26010KT 10/00 A2996 RMK A01 T00970000  RH  051%=      5-min Rain = 0
KDO2 051216Z 27009KT 10/00 A2997 RMK A01 T009700-0  RH  051%=      5-min Rain = 0
KDO2 051217Z 27009KT 10/00 A2997 RMK A01 T00960000  RH  051%=      5-min Rain = 0
KDO2 051218Z 27008KT 10/00 A2997 RMK A01 T00950000  RH  052%=      5-min Rain = 0
KDO2 051219Z 27009KT 09/00 A2997 RMK A01 T009300-0  RH  052%=      5-min Rain = 0
KDO2 051220Z 27010KT 09/00 A2997 RMK A01 T009300-0  RH  052%=      5-min Rain = 0
KDO2 051221Z 27010KT 09/M00 A2997 RMK A01 T00931001  RH  052%=      5-min Rain = 0
KDO2 051222Z 27010KT 09/M00 A2997 RMK A01 T00941002  RH  051%=      5-min Rain = 0
KDO2 051223Z 27010KT 10/M00 A2996 RMK A01 T00961003  RH  050%=      5-min Rain = 0
KDO2 051224Z 27010KT 10/M00 A2997 RMK A01 T00971004  RH  049%=      5-min Rain = 0
KDO2 051225Z 27012KT 10/M01 A2997 RMK A01 T00981005  RH  049%=      5-min Rain = 0
KDO2 051226Z 26011KT 10/M01 A2997 RMK A01 T01001006  RH  048%=      5-min Rain = 0
KDO2 051227Z 26011KT 10/M01 A2997 RMK A01 T01011006  RH  047%=      5-min Rain = 0
KDO2 051228Z 27011KT 10/M01 A2997 RMK A01 T01011007  RH  047%=      5-min Rain = 0
KDO2 051229Z 27010KT 10/M01 A2997 RMK A01 T01021007  RH  047%=      5-min Rain = 0
KDO2 051230Z 27011KT 10/M01 A2997 RMK A01 T01021008  RH  046%=      5-min Rain = 0
KDO2 051231Z 27010KT 10/M01 A2997 RMK A01 T01031008  RH  046%=      5-min Rain = 0
KDO2 051232Z 27011KT 10/M01 A2997 RMK A01 T01041008  RH  046%=      5-min Rain = 0
KDO2 051233Z 27011KT 10/M01 A2997 RMK A01 T01041008  RH  046%=      5-min Rain = 0
KDO2 051234Z 27011KT 10/M01 A2997 RMK A01 T01031009  RH  046%=      5-min Rain = 0
KDO2 051235Z 27011KT 10/M01 A2997 RMK A01 T01021008  RH  046%=      5-min Rain = 0
KDO2 051236Z 27010KT 10/M01 A2997 RMK A01 T01021009  RH  046%=      5-min Rain = 0
KDO2 051237Z 27011KT 10/M01 A2997 RMK A01 T01021008  RH  046%=      5-min Rain = 0
KDO2 051238Z 27011KT 10/M01 A2997 RMK A01 T01011009  RH  046%=      5-min Rain = 0
KDO2 051239Z 27011KT 10/M01 A2997 RMK A01 T01011010  RH  046%=      5-min Rain = 0
KDO2 051240Z 27012KT 10/M01 A2997 RMK A01 T01011010  RH  046%=      5-min Rain = 0
KDO2 051241Z 27011KT 10/M01 A2997 RMK A01 T01011009  RH  046%=      5-min Rain = 0
KDO2 051242Z 27011KT 10/M01 A2997 RMK A01 T01011010  RH  046%=      5-min Rain = 0
KDO2 051243Z 27011KT 10/M01 A2997 RMK A01 T01001010  RH  046%=      5-min Rain = 0
KDO2 051244Z 27012KT 10/M01 A2997 RMK A01 T01011011  RH  046%=      5-min Rain = 0
KDO2 051245Z 27011KT 10/M01 A2997 RMK A01 T01021011  RH  045%=      5-min Rain = 0
KDO2 051246Z 27011KT 10/M01 A2997 RMK A01 T01021011  RH  045%=      5-min Rain = 0
KDO2 051247Z 27011KT 10/M01 A2997 RMK A01 T01011011  RH  045%=      5-min Rain = 0
KDO2 051248Z 27011KT 10/M01 A2997 RMK A01 T01011011  RH  046%=      5-min Rain = 0
KDO2 051249Z 27011KT 10/M01 A2997 RMK A01 T01001011  RH  046%=      5-min Rain = 0
KDO2 051250Z 27011KT 10/M01 A2997 RMK A01 T00991011  RH  046%=      5-min Rain = 0
KDO2 051251Z 27011KT 10/M01 A2997 RMK A01 T00981012  RH  046%=      5-min Rain = 0
KDO2 051252Z 27011KT 10/M01 A2997 RMK A01 T00991012  RH  046%=      5-min Rain = 0
KDO2 051253Z 27012KT 10/M01 A2997 RMK A01 T01001013  RH  045%=      5-min Rain = 0
KDO2 051254Z 27012KT 10/M01 A2997 RMK A01 T01001013  RH  045%=      5-min Rain = 0
KDO2 051255Z 27011KT 10/M01 A2997 RMK A01 T01001013  RH  045%=      5-min Rain = 0
KDO2 051256Z 26012KT 10/M01 A2997 RMK A01 T01011014  RH  045%=      5-min Rain = 0
KDO2 051257Z 26013KT 10/M01 A2997 RMK A01 T01021014  RH  044%=      5-min Rain = 0
KDO2 051258Z 27013KT 10/M02 A2997 RMK A01 T01021015  RH  044%=      5-min Rain = 0
KDO2 051259Z 27012KT 10/M02 A2997 RMK A01 T01041015  RH  043%=      5-min Rain = 0
KDO2 051300Z 28012KT 10/M01 A2997 RMK A01 T01041014  RH  044%=      5-min Rain = 0
KDO2 051301Z 27012KT 10/M01 A2997 RMK A01 T01021014  RH  044%=      5-min Rain = 0
KDO2 051302Z 27012KT 10/M01 A2997 RMK A01 T01011014  RH  045%=      5-min Rain = 0
KDO2 051303Z 27013KT 10/M01 A2997 RMK A01 T01011014  RH  045%=      5-min Rain = 0
KDO2 051304Z 27012KT 10/M02 A2997 RMK A01 T01011015  RH  044%=      5-min Rain = 0
KDO2 051305Z 27012KT 10/M02 A2997 RMK A01 T01011015  RH  045%=      5-min Rain = 0
KDO2 051306Z 27013KT 10/M02 A2997 RMK A01 T01011016  RH  044%=      5-min Rain = 0
KDO2 051307Z 27012KT 10/M02 A2997 RMK A01 T01021016  RH  044%=      5-min Rain = 0
KDO2 051308Z 27011KT 10/M02 A2998 RMK A01 T01031016  RH  044%=      5-min Rain = 0
KDO2 051309Z 27011KT 10/M02 A2998 RMK A01 T01031015  RH  044%=      5-min Rain = 0
KDO2 051310Z 27011KT 10/M02 A2998 RMK A01 T01021015  RH  044%=      5-min Rain = 0
KDO2 051311Z 27011KT 10/M02 A2998 RMK A01 T01011015  RH  044%=      5-min Rain = 0
KDO2 051312Z 27010KT 10/M02 A2998 RMK A01 T01021015  RH  044%=      5-min Rain = 0
KDO2 051313Z 27011KT 10/M02 A2998 RMK A01 T01011015  RH  044%=      5-min Rain = 0
KDO2 051314Z 27012KT 10/M02 A2998 RMK A01 T01011016  RH  044%=      5-min Rain = 0
KDO2 051315Z 27011KT 10/M02 A2998 RMK A01 T01011016  RH  044%=      5-min Rain = 0
KDO2 051316Z 27012KT 10/M02 A2998 RMK A01 T01021016  RH  044%=      5-min Rain = 0
KDO2 051317Z 27011KT 10/M02 A2998 RMK A01 T01021017  RH  043%=      5-min Rain = 0
KDO2 051318Z 27011KT 10/M02 A2998 RMK A01 T01021016  RH  044%=      5-min Rain = 0
KDO2 051319Z 27011KT 10/M02 A2998 RMK A01 T01021015  RH  044%=      5-min Rain = 0
KDO2 051320Z 27011KT 10/M02 A2998 RMK A01 T01011016  RH  044%=      5-min Rain = 0
KDO2 051321Z 27011KT 10/M02 A2998 RMK A01 T01011015  RH  044%=      5-min Rain = 0
KDO2 051322Z 27010KT 10/M02 A2998 RMK A01 T01011015  RH  044%=      5-min Rain = 0
KDO2 051323Z 27010KT 10/M02 A2998 RMK A01 T01001015  RH  045%=      5-min Rain = 0
KDO2 051324Z 28010KT 10/M01 A2999 RMK A01 T01001014  RH  045%=      5-min Rain = 0
KDO2 051325Z 28011KT 10/M01 A2999 RMK A01 T01001014  RH  045%=      5-min Rain = 0
KDO2 051326Z 27011KT 10/M01 A2999 RMK A01 T00991013  RH  046%=      5-min Rain = 0
KDO2 051327Z 27011KT 10/M01 A2999 RMK A01 T00981014  RH  045%=      5-min Rain = 0
KDO2 051328Z 27011KT 10/M01 A2999 RMK A01 T00991014  RH  045%=      5-min Rain = 0
KDO2 051329Z 28011KT 10/M01 A2999 RMK A01 T01001014  RH  045%=      5-min Rain = 0
KDO2 051330Z 28012KT 10/M01 A2999 RMK A01 T00991014  RH  045%=      5-min Rain = 0
KDO2 051331Z 27012KT 10/M01 A2999 RMK A01 T01001014  RH  045%=      5-min Rain = 0
KDO2 051332Z 28012KT 10/M01 A2999 RMK A01 T01011014  RH  045%=      5-min Rain = 0
KDO2 051333Z 28011KT 10/M01 A2999 RMK A01 T01011014  RH  045%=      5-min Rain = 0
KDO2 051334Z 28011KT 10/M01 A30 RMK A01 T01011014  RH  044%=      5-min Rain = 0
KDO2 051335Z 28011KT 10/M01 A30 RMK A01 T01011013  RH  045%=      5-min Rain = 0
KDO2 051336Z 28012KT 10/M01 A30 RMK A01 T01011012  RH  045%=      5-min Rain = 0
KDO2 051337Z 28012KT 10/M01 A30 RMK A01 T01011013  RH  045%=      5-min Rain = 0
KDO2 051338Z 28011KT 10/M01 A30 RMK A01 T01021013  RH  045%=      5-min Rain = 0
KDO2 051339Z 28012KT 10/M01 A30 RMK A01 T01021012  RH  045%=      5-min Rain = 0
KDO2 051340Z 28012KT 10/M01 A30 RMK A01 T01021012  RH  045%=      5-min Rain = 0
KDO2 051341Z 28011KT 10/M01 A30 RMK A01 T01021012  RH  045%=      5-min Rain = 0
KDO2 051342Z 28011KT 10/M01 A30 RMK A01 T01021011  RH  045%=      5-min Rain = 0
KDO2 051343Z 28011KT 10/M01 A30 RMK A01 T01011009  RH  046%=      5-min Rain = 0
KDO2 051344Z 28011KT 10/M01 A30 RMK A01 T01011009  RH  046%=      5-min Rain = 0
KDO2 051345Z 28012KT 10/M01 A30 RMK A01 T01011011  RH  046%=      5-min Rain = 0
KDO2 051346Z 28011KT 10/M01 A30 RMK A01 T01011011  RH  046%=      5-min Rain = 0
KDO2 051347Z 28010KT 10/M01 A30 RMK A01 T01011011  RH  045%=      5-min Rain = 0
KDO2 051348Z 28011KT 10/M01 A30 RMK A01 T01021011  RH  045%=      5-min Rain = 0
KDO2 051349Z 28011KT 10/M01 A30 RMK A01 T01021010  RH  046%=      5-min Rain = 0
KDO2 051350Z 28011KT 10/M01 A30 RMK A01 T01031011  RH  045%=      5-min Rain = 0
KDO2 051351Z 28011KT 10/M01 A3001 RMK A01 T01031010  RH  045%=      5-min Rain = 0
KDO2 051352Z 28011KT 10/M01 A3001 RMK A01 T01041011  RH  045%=      5-min Rain = 0
KDO2 051353Z 28010KT 10/M01 A3001 RMK A01 T01041010  RH  045%=      5-min Rain = 0
KDO2 051354Z 27011KT 11/M01 A3001 RMK A01 T01051009  RH  045%=      5-min Rain = 0
KDO2 051355Z 27011KT 11/M01 A3001 RMK A01 T01051009  RH  045%=      5-min Rain = 0
KDO2 051356Z 27011KT 11/M01 A3001 RMK A01 T01061010  RH  045%=      5-min Rain = 0
KDO2 051357Z 27012KT 11/M01 A3001 RMK A01 T01061010  RH  045%=      5-min Rain = 0
KDO2 051358Z 28011KT 11/M01 A3001 RMK A01 T01071010  RH  044%=      5-min Rain = 0
KDO2 051359Z 27012KT 11/M01 A30 RMK A01 T01071009  RH  045%=      5-min Rain = 0
KDO2 051400Z 27011KT 11/M01 A3001 RMK A01 T01071010  RH  044%=      5-min Rain = 0
KDO2 051401Z 27012KT 11/M01 A3001 RMK A01 T01071009  RH  044%=      5-min Rain = 0
KDO2 051402Z 27011KT 11/M01 A30 RMK A01 T01081010  RH  044%=      5-min Rain = 0
KDO2 051403Z 28010KT 11/M01 A3001 RMK A01 T01081008  RH  044%=      5-min Rain = 0
KDO2 051404Z 27011KT 11/M01 A3001 RMK A01 T01091009  RH  044%=      5-min Rain = 0
KDO2 051405Z 28011KT 11/M01 A3001 RMK A01 T01091009  RH  044%=      5-min Rain = 0
KDO2 051406Z 27012KT 11/M01 A3001 RMK A01 T01091009  RH  044%=      5-min Rain = 0
KDO2 051407Z 27011KT 11/M01 A3001 RMK A01 T01101009  RH  044%=      5-min Rain = 0
KDO2 051408Z 28012KT 11/M01 A3001 RMK A01 T01101010  RH  043%=      5-min Rain = 0
KDO2 051409Z 28012KT 11/M01 A3001 RMK A01 T01101010  RH  043%=      5-min Rain = 0
KDO2 051410Z 27012KT 11/M01 A3001 RMK A01 T01101009  RH  043%=      5-min Rain = 0
KDO2 051411Z 28011KT 11/M01 A3001 RMK A01 T01101008  RH  044%=      5-min Rain = 0
KDO2 051412Z 28012KT 11/M01 A3001 RMK A01 T01111006  RH  044%=      5-min Rain = 0
KDO2 051413Z 27011KT 11/M01 A3001 RMK A01 T01111006  RH  044%=      5-min Rain = 0
KDO2 051414Z 27012KT 11/M01 A3001 RMK A01 T01121008  RH  043%=      5-min Rain = 0
KDO2 051415Z 27010KT 11/M01 A3001 RMK A01 T01121008  RH  043%=      5-min Rain = 0
KDO2 051416Z 28011KT 11/M01 A3001 RMK A01 T01121007  RH  044%=      5-min Rain = 0
KDO2 051417Z 28011KT 11/M00 A3002 RMK A01 T01121003  RH  045%=      5-min Rain = 0
KDO2 051418Z 28011KT 11/M01 A3002 RMK A01 T01131005  RH  044%=      5-min Rain = 0
KDO2 051419Z 28011KT 11/M01 A3002 RMK A01 T01141005  RH  044%=      5-min Rain = 0
KDO2 051420Z 27011KT 11/M01 A3002 RMK A01 T01141005  RH  044%=      5-min Rain = 0
KDO2 051421Z 27010KT 12/M01 A3002 RMK A01 T01151005  RH  043%=      5-min Rain = 0
KDO2 051422Z 28011KT 12/M00 A3002 RMK A01 T01161004  RH  043%=      5-min Rain = 0
KDO2 051423Z 28011KT 12/M01 A3002 RMK A01 T01161005  RH  043%=      5-min Rain = 0
KDO2 051424Z 28011KT 12/M00 A3002 RMK A01 T01161004  RH  043%=      5-min Rain = 0
KDO2 051425Z 28011KT 12/M01 A3002 RMK A01 T01161005  RH  043%=      5-min Rain = 0
KDO2 051426Z 28011KT 12/M01 A3002 RMK A01 T01161007  RH  042%=      5-min Rain = 0
KDO2 051427Z 28010KT 12/M01 A3002 RMK A01 T01171006  RH  043%=      5-min Rain = 0
KDO2 051428Z 28011KT 12/M01 A3002 RMK A01 T01181006  RH  042%=      5-min Rain = 0
KDO2 051429Z 29011KT 12/M01 A3002 RMK A01 T01191005  RH  042%=      5-min Rain = 0
KDO2 051430Z 28010KT 12/M01 A3002 RMK A01 T01201005  RH  042%=      5-min Rain = 0
KDO2 051431Z 28010KT 12/M00 A3002 RMK A01 T01211003  RH  042%=      5-min Rain = 0
KDO2 051432Z 28009KT 12/M00 A3002 RMK A01 T01231003  RH  042%=      5-min Rain = 0
KDO2 051433Z 28010KT 12/M00 A3002 RMK A01 T01231003  RH  042%=      5-min Rain = 0
KDO2 051434Z 29009KT 12/M00 A3002 RMK A01 T01231004  RH  041%=      5-min Rain = 0
KDO2 051435Z 29010KT 12/M00 A3002 RMK A01 T01231004  RH  041%=      5-min Rain = 0
KDO2 051436Z 29010KT 12/M00 A3002 RMK A01 T01241003  RH  042%=      5-min Rain = 0
KDO2 051437Z 29012KT 13/M00 A3002 RMK A01 T01251004  RH  041%=      5-min Rain = 0
KDO2 051438Z 29010G15KT 13/M00 A3002 RMK A01 T01261002  RH  041%=      5-min Rain = 0
KDO2 051439Z 29012KT 13/M00 A3003 RMK A01 T01281003  RH  040%=      5-min Rain = 0
KDO2 051440Z 29011KT 13/M00 A3003 RMK A01 T01291001  RH  041%=      5-min Rain = 0
KDO2 051441Z 29012KT 13/M00 A3003 RMK A01 T01311001  RH  040%=      5-min Rain = 0
KDO2 051442Z 30012KT 13/M00 A3003 RMK A01 T01321002  RH  040%=      5-min Rain = 0
KDO2 051443Z 29014KT 13/M00 A3003 RMK A01 T01321001  RH  040%=      5-min Rain = 0
KDO2 051444Z 29014KT 13/00 A3002 RMK A01 T01340001  RH  040%=      5-min Rain = 0
KDO2 051445Z 30014KT 13/M00 A3002 RMK A01 T01341002  RH  039%=      5-min Rain = 0
KDO2 051446Z 30013KT 14/M00 A3002 RMK A01 T01351001  RH  039%=      5-min Rain = 0
KDO2 051447Z 30013KT 14/00 A3002 RMK A01 T01360002  RH  040%=      5-min Rain = 0
KDO2 051448Z 30017KT 14/00 A3002 RMK A01 T01370001  RH  039%=      5-min Rain = 0
KDO2 051449Z 30016KT 14/00 A3002 RMK A01 T01380001  RH  039%=      5-min Rain = 0
KDO2 051450Z 30012KT 14/00 A3002 RMK A01 T01380003  RH  040%=      5-min Rain = 0
KDO2 051451Z 30016KT 14/00 A3002 RMK A01 T01400003  RH  039%=      5-min Rain = 0
KDO2 051452Z 30016KT 14/00 A3002 RMK A01 T01400001  RH  038%=      5-min Rain = 0
KDO2 051453Z 29014KT 14/00 A3002 RMK A01 T01400002  RH  039%=      5-min Rain = 0
KDO2 051454Z 30014KT 14/00 A3002 RMK A01 T01400000  RH  038%=      5-min Rain = 0
KDO2 051455Z 29014KT 14/00 A3002 RMK A01 T01400004  RH  039%=      5-min Rain = 0
KDO2 051456Z 29015KT 14/00 A3002 RMK A01 T01410000  RH  038%=      5-min Rain = 0
KDO2 051457Z 29015KT 14/00 A3002 RMK A01 T01410001  RH  038%=      5-min Rain = 0
KDO2 051458Z 29015KT 14/01 A3002 RMK A01 T01420005  RH  039%=      5-min Rain = 0
KDO2 051459Z 29016KT 14/00 A3002 RMK A01 T01420003  RH  038%=      5-min Rain = 0
KDO2 051500Z 29014KT 14/00 A3002 RMK A01 T01420003  RH  038%=      5-min Rain = 0
KDO2 051501Z 29014KT 14/01 A3002 RMK A01 T01430005  RH  039%=      5-min Rain = 0
KDO2 051502Z 29014KT 14/01 A3002 RMK A01 T01440006  RH  039%=      5-min Rain = 0
KDO2 051503Z 29016KT 14/01 A3002 RMK A01 T01440005  RH  039%=      5-min Rain = 0
KDO2 051504Z 29016KT 14/00 A3002 RMK A01 T01440004  RH  038%=      5-min Rain = 0
KDO2 051505Z 29015KT 14/00 A3002 RMK A01 T01430003  RH  038%=      5-min Rain = 0
KDO2 051506Z 29014KT 14/00 A3002 RMK A01 T01420004  RH  039%=      5-min Rain = 0
KDO2 051507Z 29018KT 14/00 A3002 RMK A01 T01420002  RH  038%=      5-min Rain = 0
KDO2 051508Z 29017KT 14/00 A3002 RMK A01 T01430003  RH  038%=      5-min Rain = 0
KDO2 051509Z 30016KT 14/00 A3002 RMK A01 T01430003  RH  038%=      5-min Rain = 0
KDO2 051510Z 29017KT 14/00 A3002 RMK A01 T01430003  RH  038%=      5-min Rain = 0
KDO2 051511Z 29016KT 14/00 A3002 RMK A01 T01430004  RH  038%=      5-min Rain = 0
KDO2 051512Z 29013KT 14/00 A3002 RMK A01 T01430004  RH  039%=      5-min Rain = 0
KDO2 051513Z 28015KT 14/01 A3002 RMK A01 T01440005  RH  039%=      5-min Rain = 0
KDO2 051514Z 29016KT 15/01 A3002 RMK A01 T01450006  RH  039%=      5-min Rain = 0
KDO2 051515Z 29016KT 15/00 A3003 RMK A01 T01450004  RH  038%=      5-min Rain = 0
KDO2 051516Z 30016KT 14/00 A3003 RMK A01 T01440004  RH  038%=      5-min Rain = 0
KDO2 051517Z 29017KT 14/00 A3003 RMK A01 T01430003  RH  038%=      5-min Rain = 0
KDO2 051518Z 28013KT 14/00 A3003 RMK A01 T01430004  RH  038%=      5-min Rain = 0
KDO2 051519Z 28015KT 14/01 A3003 RMK A01 T01440005  RH  039%=      5-min Rain = 0
KDO2 051520Z 28016KT 15/01 A3002 RMK A01 T01450005  RH  038%=      5-min Rain = 0
KDO2 051521Z 28016KT 15/00 A3002 RMK A01 T01450003  RH  038%=      5-min Rain = 0
KDO2 051522Z 28015KT 15/01 A3002 RMK A01 T01460006  RH  038%=      5-min Rain = 0
KDO2 051523Z 28015KT 15/01 A3002 RMK A01 T01480006  RH  038%=      5-min Rain = 0
KDO2 051524Z 28017KT 15/01 A3002 RMK A01 T01490007  RH  038%=      5-min Rain = 0
KDO2 051525Z 29015KT 15/01 A3002 RMK A01 T01490005  RH  037%=      5-min Rain = 0
KDO2 051526Z 29017KT 15/00 A3002 RMK A01 T01480003  RH  037%=      5-min Rain = 0
KDO2 051527Z 29016KT 15/01 A3002 RMK A01 T01470005  RH  038%=      5-min Rain = 0
KDO2 051528Z 29015KT 15/00 A3002 RMK A01 T01480004  RH  037%=      5-min Rain = 0
KDO2 051529Z 29015KT 15/01 A3002 RMK A01 T01490007  RH  038%=      5-min Rain = 0
KDO2 051530Z 30015KT 15/01 A3002 RMK A01 T01510008  RH  038%=      5-min Rain = 0
KDO2 051531Z 29015KT 15/01 A3003 RMK A01 T01520006  RH  037%=      5-min Rain = 0
KDO2 051532Z 30015KT 15/01 A3003 RMK A01 T01520007  RH  037%=      5-min Rain = 0
KDO2 051533Z 30016KT 15/01 A3003 RMK A01 T01520007  RH  037%=      5-min Rain = 0
KDO2 051534Z 30015KT 15/01 A3003 RMK A01 T01540009  RH  037%=      5-min Rain = 0
KDO2 051535Z 30017KT 15/01 A3003 RMK A01 T01540009  RH  037%=      5-min Rain = 0
KDO2 051536Z 31017KT 16/01 A3003 RMK A01 T01550011  RH  038%=      5-min Rain = 0
KDO2 051537Z 30018KT 16/01 A3003 RMK A01 T01560010  RH  037%=      5-min Rain = 0
KDO2 051538Z 30018KT 16/01 A3003 RMK A01 T01560010  RH  037%=      5-min Rain = 0
KDO2 051539Z 30019KT 16/01 A3003 RMK A01 T01560010  RH  037%=      5-min Rain = 0
KDO2 051540Z 30016KT 16/01 A3003 RMK A01 T01560009  RH  037%=      5-min Rain = 0
KDO2 051541Z 30015KT 16/01 A3003 RMK A01 T01560012  RH  037%=      5-min Rain = 0
KDO2 051542Z 30020G25KT 16/02 A3003 RMK A01 T01600016  RH  038%=      5-min Rain = 0
KDO2 051543Z 30021KT 16/01 A3003 RMK A01 T01590013  RH  037%=      5-min Rain = 0
KDO2 051544Z 30020KT 16/01 A3003 RMK A01 T01580013  RH  037%=      5-min Rain = 0
KDO2 051545Z 30019KT 16/01 A3003 RMK A01 T01570012  RH  037%=      5-min Rain = 0
KDO2 051546Z 31021KT 16/01 A3003 RMK A01 T01560014  RH  038%=      5-min Rain = 0
KDO2 051547Z 31021KT 16/01 A3003 RMK A01 T01570013  RH  038%=      5-min Rain = 0
KDO2 051548Z 31020KT 16/01 A3003 RMK A01 T01570014  RH  038%=      5-min Rain = 0
KDO2 051549Z 31021KT 16/01 A3003 RMK A01 T01570014  RH  038%=      5-min Rain = 0
KDO2 051550Z 31021KT 16/02 A3003 RMK A01 T01570016  RH  038%=      5-min Rain = 0
KDO2 051551Z 31020KT 16/02 A3003 RMK A01 T01590016  RH  038%=      5-min Rain = 0
KDO2 051552Z 31019KT 16/02 A3003 RMK A01 T01600016  RH  038%=      5-min Rain = 0
KDO2 051553Z 31021KT 16/01 A3003 RMK A01 T01590014  RH  037%=      5-min Rain = 0
KDO2 051554Z 31017KT 16/01 A3003 RMK A01 T01580014  RH  038%=      5-min Rain = 0
KDO2 051555Z 32020KT 16/02 A3003 RMK A01 T01610017  RH  038%=      5-min Rain = 0
KDO2 051556Z 32019KT 16/02 A3003 RMK A01 T01620017  RH  037%=      5-min Rain = 0
KDO2 051557Z 31022G27KT 16/02 A3003 RMK A01 T01620015  RH  037%=      5-min Rain = 0
KDO2 051558Z 30022G27KT 16/02 A3003 RMK A01 T01610015  RH  037%=      5-min Rain = 0
KDO2 051559Z 31019G24KT 16/02 A3004 RMK A01 T01610015  RH  037%=      5-min Rain = 0
KDO2 051600Z 30020KT 16/02 A3004 RMK A01 T01610015  RH  037%=      5-min Rain = 0
KDO2 051601Z 30018G24KT 16/02 A3004 RMK A01 T01600015  RH  037%=      5-min Rain = 0
KDO2 051602Z 31020KT 16/02 A3004 RMK A01 T01620017  RH  037%=      5-min Rain = 0
KDO2 051603Z 32020KT 16/02 A3004 RMK A01 T01630016  RH  037%=      5-min Rain = 0
KDO2 051604Z 30020KT 16/02 A3004 RMK A01 T01630016  RH  037%=      5-min Rain = 0
KDO2 051605Z 29021G27KT 16/02 A3004 RMK A01 T01630015  RH  037%=      5-min Rain = 0
KDO2 051606Z 31022G27KT 16/02 A3004 RMK A01 T01630015  RH  037%=      5-min Rain = 0
KDO2 051607Z 31024KT 16/01 A3004 RMK A01 T01620013  RH  036%=      5-min Rain = 0
KDO2 051608Z 31020KT 16/01 A3004 RMK A01 T01590011  RH  037%=      5-min Rain = 0
KDO2 051609Z 31017KT 16/01 A3004 RMK A01 T01590014  RH  038%=      5-min Rain = 0
KDO2 051610Z 31019KT 16/02 A3004 RMK A01 T01610015  RH  037%=      5-min Rain = 0
KDO2 051611Z 31018KT 16/01 A3004 RMK A01 T01610013  RH  037%=      5-min Rain = 0
KDO2 051612Z 30018G23KT 16/01 A3004 RMK A01 T01590012  RH  037%=      5-min Rain = 0
KDO2 051613Z 29022KT 16/02 A3004 RMK A01 T01600015  RH  037%=      5-min Rain = 0
KDO2 051614Z 30020KT 16/02 A3004 RMK A01 T01610015  RH  037%=      5-min Rain = 0
KDO2 051615Z 30018KT 16/02 A3004 RMK A01 T01620015  RH  037%=      5-min Rain = 0
KDO2 051616Z 30020KT 16/02 A3004 RMK A01 T01630015  RH  037%=      5-min Rain = 0
KDO2 051617Z 28020KT 16/01 A3004 RMK A01 T01620014  RH  037%=      5-min Rain = 0
KDO2 051618Z 29019KT 16/02 A3004 RMK A01 T01630016  RH  037%=      5-min Rain = 0
KDO2 051619Z 30021KT 17/02 A3004 RMK A01 T01650018  RH  037%=      5-min Rain = 0
KDO2 051620Z 30021KT 17/02 A3004 RMK A01 T01670018  RH  037%=      5-min Rain = 0
KDO2 051621Z 30021KT 17/02 A3004 RMK A01 T01650015  RH  036%=      5-min Rain = 0
KDO2 051622Z 30018KT 16/01 A3004 RMK A01 T01620014  RH  037%=      5-min Rain = 0
KDO2 051623Z 29020KT 16/02 A3004 RMK A01 T01610015  RH  037%=      5-min Rain = 0
KDO2 051624Z 30022KT 16/02 A3004 RMK A01 T01620016  RH  037%=      5-min Rain = 0
KDO2 051625Z 30020KT 16/02 A3004 RMK A01 T01620016  RH  037%=      5-min Rain = 0
KDO2 051626Z 30017KT 16/02 A3004 RMK A01 T01620016  RH  037%=      5-min Rain = 0
KDO2 051627Z 30016KT 16/02 A3004 RMK A01 T01640020  RH  038%=      5-min Rain = 0
KDO2 051628Z 30019KT 17/02 A3004 RMK A01 T01660018  RH  037%=      5-min Rain = 0
KDO2 051629Z 31017KT 17/02 A3004 RMK A01 T01660018  RH  037%=      5-min Rain = 0
KDO2 051630Z 31018G23KT 17/02 A3004 RMK A01 T01660019  RH  037%=      5-min Rain = 0
KDO2 051631Z 30016KT 17/02 A3004 RMK A01 T01650020  RH  037%=      5-min Rain = 0
KDO2 051632Z 31020KT 17/02 A3004 RMK A01 T01660020  RH  038%=      5-min Rain = 0
KDO2 051633Z 32018KT 17/02 A3004 RMK A01 T01660019  RH  037%=      5-min Rain = 0
KDO2 051634Z 31015KT 16/02 A3004 RMK A01 T01640020  RH  038%=      5-min Rain = 0
KDO2 051635Z 30013KT 17/02 A3004 RMK A01 T01650020  RH  038%=      5-min Rain = 0
KDO2 051636Z 30016KT 17/02 A3004 RMK A01 T01700024  RH  037%=      5-min Rain = 0
KDO2 051637Z 29017KT 17/02 A3004 RMK A01 T01710023  RH  037%=      5-min Rain = 0
KDO2 051638Z 29018KT 17/02 A3004 RMK A01 T01720024  RH  037%=      5-min Rain = 0
KDO2 051639Z 30019KT 17/03 A3004 RMK A01 T01730026  RH  037%=      5-min Rain = 0
KDO2 051640Z 31018KT 17/03 A3004 RMK A01 T01730027  RH  037%=      5-min Rain = 0
KDO2 051641Z 32021KT 17/03 A3004 RMK A01 T01730029  RH  038%=      5-min Rain = 0
KDO2 051642Z 32020KT 17/03 A3004 RMK A01 T01710027  RH  038%=      5-min Rain = 0
KDO2 051643Z 32016KT 17/03 A3004 RMK A01 T01700029  RH  039%=      5-min Rain = 0
KDO2 051644Z 32020KT 17/03 A3004 RMK A01 T01730032  RH  039%=      5-min Rain = 0
KDO2 051645Z 32022KT 17/03 A3004 RMK A01 T01740029  RH  038%=      5-min Rain = 0
KDO2 051646Z 32022KT 17/03 A3004 RMK A01 T01720029  RH  038%=      5-min Rain = 0
KDO2 051647Z 32019KT 17/03 A3004 RMK A01 T01710028  RH  038%=      5-min Rain = 0
KDO2 051648Z 32017KT 17/03 A3004 RMK A01 T01720032  RH  039%=      5-min Rain = 0
KDO2 051649Z 32020KT 18/03 A3004 RMK A01 T01750031  RH  038%=      5-min Rain = 0
KDO2 051650Z 31020KT 17/03 A3004 RMK A01 T01740030  RH  038%=      5-min Rain = 0
KDO2 051651Z 32020KT 17/03 A3004 RMK A01 T01710028  RH  038%=      5-min Rain = 0
KDO2 051652Z 32018KT 17/03 A3004 RMK A01 T01700029  RH  039%=      5-min Rain = 0
KDO2 051653Z 32019KT 17/03 A3004 RMK A01 T01700029  RH  039%=      5-min Rain = 0
KDO2 051654Z 32020KT 17/03 A3004 RMK A01 T01700030  RH  039%=      5-min Rain = 0
KDO2 051655Z 32017G22KT 17/03 A3004 RMK A01 T01720032  RH  039%=      5-min Rain = 0
KDO2 051656Z 32018KT 17/03 A3004 RMK A01 T01740031  RH  038%=      5-min Rain = 0
KDO2 051657Z 33019KT 17/03 A3004 RMK A01 T01730031  RH  038%=      5-min Rain = 0
KDO2 051658Z 32019KT 17/03 A3004 RMK A01 T01740030  RH  038%=      5-min Rain = 0
KDO2 051659Z 31017KT 17/03 A3004 RMK A01 T01730030  RH  038%=      5-min Rain = 0
KDO2 051700Z 32018KT 17/03 A3004 RMK A01 T01740032  RH  039%=      5-min Rain = 0
KDO2 051701Z 32016KT 18/03 A3004 RMK A01 T01760032  RH  038%=      5-min Rain = 0
KDO2 051702Z 31017KT 18/03 A3004 RMK A01 T01750030  RH  038%=      5-min Rain = 0
KDO2 051703Z 32019KT 17/03 A3004 RMK A01 T01740031  RH  038%=      5-min Rain = 0
KDO2 051704Z 33017KT 17/03 A3004 RMK A01 T01740032  RH  039%=      5-min Rain = 0
KDO2 051705Z 32018KT 18/03 A3004 RMK A01 T01750031  RH  038%=      5-min Rain = 0
KDO2 051706Z 31015KT 18/03 A3004 RMK A01 T01750032  RH  039%=      5-min Rain = 0
KDO2 051707Z 30015KT 18/04 A3004 RMK A01 T01780035  RH  039%=      5-min Rain = 0
KDO2 051708Z 30016KT 18/04 A3004 RMK A01 T01810036  RH  038%=      5-min Rain = 0
KDO2 051709Z 31018KT 18/04 A3004 RMK A01 T01840035  RH  037%=      5-min Rain = 0
KDO2 051710Z 30017KT 18/03 A3004 RMK A01 T01800031  RH  037%=      5-min Rain = 0
KDO2 051711Z 31019KT 18/03 A3004 RMK A01 T01770032  RH  038%=      5-min Rain = 0
KDO2 051712Z 31020KT 18/03 A3004 RMK A01 T01780034  RH  038%=      5-min Rain = 0
KDO2 051713Z 31021KT 18/04 A3004 RMK A01 T01810036  RH  038%=      5-min Rain = 0
KDO2 051714Z 32019KT 18/03 A3004 RMK A01 T01810034  RH  037%=      5-min Rain = 0
KDO2 051715Z 31017KT 18/03 A3004 RMK A01 T01770032  RH  038%=      5-min Rain = 0
KDO2 051716Z 32016KT 18/03 A3004 RMK A01 T01760034  RH  039%=      5-min Rain = 0
KDO2 051717Z 30017KT 18/03 A3004 RMK A01 T01780034  RH  038%=      5-min Rain = 0
KDO2 051718Z 30018KT 18/04 A3004 RMK A01 T01800035  RH  038%=      5-min Rain = 0
KDO2 051719Z 32019KT 18/03 A3004 RMK A01 T01780033  RH  038%=      5-min Rain = 0
KDO2 051720Z 31016KT 18/04 A3004 RMK A01 T01780035  RH  039%=      5-min Rain = 0
KDO2 051721Z 32018KT 18/04 A3004 RMK A01 T01780035  RH  038%=      5-min Rain = 0
KDO2 051722Z 32018KT 18/04 A3004 RMK A01 T01790036  RH  039%=      5-min Rain = 0
KDO2 051723Z 32015KT 18/04 A3004 RMK A01 T01800036  RH  038%=      5-min Rain = 0
KDO2 051724Z 33015KT 18/04 A3004 RMK A01 T01810038  RH  039%=      5-min Rain = 0
KDO2 051725Z 30013KT 19/04 A3004 RMK A01 T01850039  RH  038%=      5-min Rain = 0
KDO2 051726Z 30010G15KT 19/04 A3004 RMK A01 T01850036  RH  037%=      5-min Rain = 0
KDO2 051727Z 30016G21KT 18/04 A3004 RMK A01 T01830036  RH  037%=      5-min Rain = 0
KDO2 051728Z 30019KT 18/04 A3004 RMK A01 T01840039  RH  038%=      5-min Rain = 0
KDO2 051729Z 30012KT 18/04 A3004 RMK A01 T01840036  RH  037%=      5-min Rain = 0
KDO2 051730Z 31013KT 18/04 A3004 RMK A01 T01830040  RH  039%=      5-min Rain = 0
KDO2 051731Z 31018G24KT 19/04 A3004 RMK A01 T01850038  RH  038%=      5-min Rain = 0
KDO2 051732Z 31019KT 19/04 A3004 RMK A01 T01850038  RH  038%=      5-min Rain = 0
KDO2 051733Z 31018KT 18/04 A3004 RMK A01 T01840037  RH  038%=      5-min Rain = 0
KDO2 051734Z 31015KT 18/04 A3004 RMK A01 T01820037  RH  038%=      5-min Rain = 0
KDO2 051735Z 32014KT 18/04 A3004 RMK A01 T01830041  RH  039%=      5-min Rain = 0
KDO2 051736Z 33013KT 19/04 A3004 RMK A01 T01880042  RH  038%=      5-min Rain = 0
KDO2 051737Z 33017KT 19/04 A3004 RMK A01 T01900041  RH  037%=      5-min Rain = 0
KDO2 051738Z 31018G23KT 19/04 A3004 RMK A01 T01900041  RH  037%=      5-min Rain = 0
KDO2 051739Z 30018KT 19/04 A3004 RMK A01 T01890038  RH  037%=      5-min Rain = 0
KDO2 051740Z 32018KT 19/04 A3004 RMK A01 T01850038  RH  038%=      5-min Rain = 0
KDO2 051741Z 31017KT 19/04 A3004 RMK A01 T01870041  RH  038%=      5-min Rain = 0
KDO2 051742Z 30015KT 19/04 A3004 RMK A01 T01910041  RH  037%=      5-min Rain = 0
KDO2 051743Z 33018KT 19/04 A3004 RMK A01 T01890041  RH  037%=      5-min Rain = 0
KDO2 051744Z 32016KT 19/04 A3004 RMK A01 T01890041  RH  037%=      5-min Rain = 0
KDO2 051745Z 31017KT 19/04 A3004 RMK A01 T01880041  RH  038%=      5-min Rain = 0
KDO2 051746Z 31016KT 19/04 A3004 RMK A01 T01870040  RH  038%=      5-min Rain = 0
KDO2 051747Z 30016KT 19/04 A3004 RMK A01 T01870043  RH  038%=      5-min Rain = 0
KDO2 051748Z 32019KT 19/04 A3004 RMK A01 T01910042  RH  037%=      5-min Rain = 0
KDO2 051749Z 33021KT 19/04 A3004 RMK A01 T01900041  RH  037%=      5-min Rain = 0
KDO2 051750Z 33018G24KT 19/04 A3004 RMK A01 T01880041  RH  038%=      5-min Rain = 0
KDO2 051751Z 32018KT 19/04 A3004 RMK A01 T01870041  RH  038%=      5-min Rain = 0
KDO2 051752Z 31020G25KT 19/04 A3004 RMK A01 T01890043  RH  038%=      5-min Rain = 0
KDO2 051753Z 31017G22KT 19/04 A3004 RMK A01 T01900043  RH  038%=      5-min Rain = 0
KDO2 051754Z 30020KT 19/04 A3004 RMK A01 T01880040  RH  038%=      5-min Rain = 0
KDO2 051755Z 29020KT 19/04 A3004 RMK A01 T01880041  RH  038%=      5-min Rain = 0
KDO2 051756Z 31019G25KT 19/05 A3004 RMK A01 T01910045  RH  038%=      5-min Rain = 0
KDO2 051757Z 32020KT 19/04 A3004 RMK A01 T01930043  RH  037%=      5-min Rain = 0
KDO2 051758Z 32019KT 19/04 A3004 RMK A01 T01930043  RH  037%=      5-min Rain = 0
KDO2 051759Z 33019KT 19/04 A3004 RMK A01 T01920042  RH  037%=      5-min Rain = 0
KDO2 051800Z 33019KT 19/05 A3004 RMK A01 T01940045  RH  037%=      5-min Rain = 0
KDO2 051801Z 33021KT 20/05 A3004 RMK A01 T01970045  RH  037%=      5-min Rain = 0
KDO2 051802Z 32019KT 20/04 A3004 RMK A01 T01960042  RH  036%=      5-min Rain = 0
KDO2 051803Z 31015KT 19/04 A3004 RMK A01 T01940042  RH  037%=      5-min Rain = 0
KDO2 051804Z 30015KT 19/04 A3004 RMK A01 T01930042  RH  037%=      5-min Rain = 0
KDO2 051805Z 31018KT 19/04 A3004 RMK A01 T01930043  RH  037%=      5-min Rain = 0
KDO2 051806Z 32024KT 19/04 A3004 RMK A01 T01940041  RH  036%=      5-min Rain = 0
KDO2 051807Z 32025KT 19/04 A3004 RMK A01 T01930040  RH  037%=      5-min Rain = 0
KDO2 051808Z 32023KT 19/04 A3004 RMK A01 T01920040  RH  036%=      5-min Rain = 0
KDO2 051809Z 32023G29KT 19/04 A3004 RMK A01 T01910039  RH  036%=      5-min Rain = 0
KDO2 051810Z 32021KT 19/04 A3004 RMK A01 T01920041  RH  037%=      5-min Rain = 0
KDO2 051811Z 33022KT 20/04 A3004 RMK A01 T01950040  RH  036%=      5-min Rain = 0
KDO2 051812Z 34022KT 19/04 A3004 RMK A01 T01930040  RH  036%=      5-min Rain = 0
KDO2 051813Z 34018KT 19/04 A3004 RMK A01 T01920041  RH  037%=      5-min Rain = 0
KDO2 051814Z 32018G23KT 19/04 A3004 RMK A01 T01910040  RH  037%=      5-min Rain = 0
KDO2 051815Z 32020KT 19/04 A3004 RMK A01 T01910043  RH  037%=      5-min Rain = 0
KDO2 051816Z 30020G26KT 19/04 A3004 RMK A01 T01920041  RH  037%=      5-min Rain = 0
KDO2 051817Z 32024KT 19/04 A3004 RMK A01 T01940041  RH  036%=      5-min Rain = 0
KDO2 051818Z 34022KT 20/04 A3004 RMK A01 T01960039  RH  035%=      5-min Rain = 0
KDO2 051819Z 33019KT 20/04 A3004 RMK A01 T01970039  RH  035%=      5-min Rain = 0
KDO2 051820Z 33022G27KT 20/04 A3004 RMK A01 T01990040  RH  035%=      5-min Rain = 0
KDO2 051821Z 33022G28KT 20/04 A3004 RMK A01 T01970040  RH  036%=      5-min Rain = 0
KDO2 051822Z 33023KT 20/04 A3004 RMK A01 T01960041  RH  036%=      5-min Rain = 0
KDO2 051823Z 32022KT 20/04 A3004 RMK A01 T01960039  RH  035%=      5-min Rain = 0
KDO2 051824Z 31016KT 20/04 A3004 RMK A01 T01950039  RH  036%=      5-min Rain = 0
KDO2 051825Z 31016KT 19/04 A3004 RMK A01 T01940040  RH  036%=      5-min Rain = 0
KDO2 051826Z 32017G22KT 20/04 A3004 RMK A01 T01970042  RH  036%=      5-min Rain = 0
KDO2 051827Z 32024G30KT 20/04 A3004 RMK A01 T02000042  RH  035%=      5-min Rain = 0
KDO2 051828Z 33024G29KT 20/04 A3004 RMK A01 T01980038  RH  035%=      5-min Rain = 0
KDO2 051829Z 32023KT 20/04 A3004 RMK A01 T01960039  RH  035%=      5-min Rain = 0
KDO2 051830Z 33025KT 20/04 A3004 RMK A01 T01970039  RH  035%=      5-min Rain = 0
KDO2 051831Z 32024G30KT 20/04 A3004 RMK A01 T01960038  RH  035%=      5-min Rain = 0
KDO2 051832Z 32018KT 19/04 A3004 RMK A01 T01940039  RH  036%=      5-min Rain = 0
KDO2 051833Z 31021KT 19/04 A3004 RMK A01 T01940038  RH  036%=      5-min Rain = 0
KDO2 051834Z 31019KT 19/04 A3003 RMK A01 T01940037  RH  035%=      5-min Rain = 0
KDO2 051835Z 31023KT 19/04 A3003 RMK A01 T01940038  RH  036%=      5-min Rain = 0
KDO2 051836Z 31022G27KT 20/04 A3003 RMK A01 T01950036  RH  035%=      5-min Rain = 0
KDO2 051837Z 34019KT 20/04 A3003 RMK A01 T01970038  RH  035%=      5-min Rain = 0
KDO2 051838Z 34019KT 20/04 A3003 RMK A01 T01980038  RH  035%=      5-min Rain = 0
KDO2 051839Z 34018KT 20/04 A3003 RMK A01 T01960038  RH  035%=      5-min Rain = 0
KDO2 051840Z 33020G25KT 20/04 A3003 RMK A01 T01970039  RH  035%=      5-min Rain = 0
KDO2 051841Z 33021KT 20/04 A3003 RMK A01 T01970039  RH  035%=      5-min Rain = 0
KDO2 051842Z 31023KT 20/04 A3003 RMK A01 T01970039  RH  035%=      5-min Rain = 0
KDO2 051843Z 31022KT 20/04 A3003 RMK A01 T01970038  RH  035%=      5-min Rain = 0
KDO2 051844Z 31021KT 20/04 A3003 RMK A01 T01970039  RH  035%=      5-min Rain = 0
KDO2 051845Z 32019KT 20/04 A3003 RMK A01 T01980039  RH  035%=      5-min Rain = 0
KDO2 051846Z 32019KT 20/04 A3003 RMK A01 T01960039  RH  036%=      5-min Rain = 0
KDO2 051847Z 32018KT 20/04 A3003 RMK A01 T01970039  RH  035%=      5-min Rain = 0
KDO2 051848Z 33017G22KT 20/04 A3003 RMK A01 T01970039  RH  035%=      5-min Rain = 0
KDO2 051849Z 32020G27KT 20/04 A3003 RMK A01 T01980037  RH  035%=      5-min Rain = 0
KDO2 051850Z 34023KT 20/03 A3003 RMK A01 T01980034  RH  034%=      5-min Rain = 0
KDO2 051851Z 34023KT 20/03 A3003 RMK A01 T01980033  RH  033%=      5-min Rain = 0
KDO2 051852Z 35018KT 20/03 A3003 RMK A01 T01980033  RH  033%=      5-min Rain = 0
KDO2 051853Z 34017KT 20/04 A3003 RMK A01 T01990035  RH  034%=      5-min Rain = 0
KDO2 051854Z 33017KT 20/04 A3003 RMK A01 T01980035  RH  034%=      5-min Rain = 0
KDO2 051855Z 32017KT 20/04 A3003 RMK A01 T02000037  RH  034%=      5-min Rain = 0
KDO2 051856Z 31018KT 20/04 A3003 RMK A01 T02000038  RH  034%=      5-min Rain = 0
KDO2 051857Z 32021KT 20/04 A3003 RMK A01 T02010037  RH  034%=      5-min Rain = 0
KDO2 051858Z 33024KT 20/04 A3003 RMK A01 T02020037  RH  034%=      5-min Rain = 0
KDO2 051859Z 33021KT 20/04 A3003 RMK A01 T02020038  RH  034%=      5-min Rain = 0
KDO2 051900Z 34022KT 20/04 A3004 RMK A01 T02030040  RH  034%=      5-min Rain = 0
KDO2 051901Z 34019KT 20/04 A3004 RMK A01 T02030038  RH  034%=      5-min Rain = 0
KDO2 051902Z 34016G21KT 20/04 A3003 RMK A01 T02010037  RH  034%=      5-min Rain = 0
KDO2 051903Z 34020KT 20/04 A3003 RMK A01 T02000040  RH  035%=      5-min Rain = 0
KDO2 051904Z 33020KT 20/04 A3003 RMK A01 T02030039  RH  034%=      5-min Rain = 0
KDO2 051905Z 33022KT 20/04 A3003 RMK A01 T02010039  RH  034%=      5-min Rain = 0
KDO2 051906Z 34024KT 20/04 A3003 RMK A01 T02010042  RH  035%=      5-min Rain = 0
KDO2 051907Z 32018G26KT 20/04 A3004 RMK A01 T02030040  RH  034%=      5-min Rain = 0
KDO2 051908Z 33018G26KT 20/04 A3003 RMK A01 T01990041  RH  035%=      5-min Rain = 0
KDO2 051909Z 33018KT 20/04 A3004 RMK A01 T02010043  RH  035%=      5-min Rain = 0
KDO2 051910Z 31017KT 20/04 A3003 RMK A01 T02020042  RH  035%=      5-min Rain = 0
KDO2 051911Z 31019KT 20/04 A3003 RMK A01 T02010042  RH  035%=      5-min Rain = 0
KDO2 051912Z 33017KT 20/04 A3003 RMK A01 T02010044  RH  036%=      5-min Rain = 0
KDO2 051913Z 33019G24KT 21/05 A3003 RMK A01 T02060047  RH  035%=      5-min Rain = 0
KDO2 051914Z 33016KT 21/05 A3003 RMK A01 T02060047  RH  035%=      5-min Rain = 0
KDO2 051915Z 34019KT 21/05 A3003 RMK A01 T02070047  RH  035%=      5-min Rain = 0
KDO2 051916Z 32022KT 21/05 A3003 RMK A01 T02090049  RH  035%=      5-min Rain = 0
KDO2 051917Z 33023KT 21/05 A3003 RMK A01 T02090047  RH  034%=      5-min Rain = 0
KDO2 051918Z 33021KT 21/05 A3003 RMK A01 T02060046  RH  035%=      5-min Rain = 0
KDO2 051919Z 34019KT 20/05 A3003 RMK A01 T02040046  RH  035%=      5-min Rain = 0
KDO2 051920Z 34019G24KT 20/05 A3003 RMK A01 T02030045  RH  035%=      5-min Rain = 0
KDO2 051921Z 33022G27KT 21/05 A3003 RMK A01 T02050047  RH  036%=      5-min Rain = 0
KDO2 051922Z 33022KT 21/05 A3003 RMK A01 T02060047  RH  035%=      5-min Rain = 0
KDO2 051923Z 33022KT 21/05 A3003 RMK A01 T02050047  RH  036%=      5-min Rain = 0
KDO2 051924Z 33017G22KT 20/05 A3003 RMK A01 T02030046  RH  036%=      5-min Rain = 0
KDO2 051925Z 34017KT 20/05 A3003 RMK A01 T02020048  RH  036%=      5-min Rain = 0
KDO2 051926Z 33020KT 20/05 A3003 RMK A01 T02030049  RH  036%=      5-min Rain = 0
KDO2 051927Z 32021KT 20/05 A3003 RMK A01 T02040047  RH  036%=      5-min Rain = 0
KDO2 051928Z 31020KT 21/05 A3003 RMK A01 T02050049  RH  036%=      5-min Rain = 0
KDO2 051929Z 32021G27KT 21/05 A3003 RMK A01 T02050047  RH  035%=      5-min Rain = 0
KDO2 051930Z 33017KT 20/05 A3003 RMK A01 T02040050  RH  036%=      5-min Rain = 0
KDO2 051931Z 34022G28KT 21/05 A3003 RMK A01 T02100051  RH  035%=      5-min Rain = 0
KDO2 051932Z 34018KT 21/05 A3003 RMK A01 T02090049  RH  035%=      5-min Rain = 0
KDO2 051933Z 34018KT 21/05 A3003 RMK A01 T02060050  RH  036%=      5-min Rain = 0
KDO2 051934Z 34021KT 21/05 A3003 RMK A01 T02070051  RH  036%=      5-min Rain = 0
KDO2 051935Z 32018KT 21/05 A3003 RMK A01 T02070050  RH  036%=      5-min Rain = 0
KDO2 051936Z 32018KT 21/05 A3003 RMK A01 T02080051  RH  036%=      5-min Rain = 0
KDO2 051937Z 33022G29KT 21/05 A3003 RMK A01 T02110054  RH  036%=      5-min Rain = 0
KDO2 051938Z 33017G23KT 21/05 A3003 RMK A01 T02120053  RH  035%=      5-min Rain = 0
KDO2 051939Z 33018KT 21/06 A3003 RMK A01 T02140055  RH  036%=      5-min Rain = 0
KDO2 051940Z 34019KT 22/06 A3003 RMK A01 T02160055  RH  035%=      5-min Rain = 0
KDO2 051941Z 34019KT 22/06 A3003 RMK A01 T02160055  RH  035%=      5-min Rain = 0
KDO2 051942Z 33017KT 21/05 A3003 RMK A01 T02130054  RH  035%=      5-min Rain = 0
KDO2 051943Z 34026KT 21/05 A3003 RMK A01 T02130054  RH  035%=      5-min Rain = 0
KDO2 051944Z 34022KT 21/05 A3003 RMK A01 T02090048  RH  035%=      5-min Rain = 0
KDO2 051945Z 35026KT 21/05 A3003 RMK A01 T02050049  RH  036%=      5-min Rain = 0
KDO2 051946Z 34023KT 21/05 A3003 RMK A01 T02050049  RH  036%=      5-min Rain = 0
KDO2 051947Z 34020KT 21/05 A3003 RMK A01 T02060050  RH  036%=      5-min Rain = 0
KDO2 051948Z 33023KT 21/05 A3003 RMK A01 T02050050  RH  036%=      5-min Rain = 0
KDO2 051949Z 34019G24KT 21/05 A3003 RMK A01 T02060052  RH  037%=      5-min Rain = 0
KDO2 051950Z 34022KT 21/05 A3003 RMK A01 T02080053  RH  036%=      5-min Rain = 0
KDO2 051951Z 34024KT 21/05 A3003 RMK A01 T02080053  RH  036%=      5-min Rain = 0
KDO2 051952Z 33021G27KT 21/05 A3003 RMK A01 T02060052  RH  036%=      5-min Rain = 0
KDO2 051953Z 33025KT 21/05 A3003 RMK A01 T02050051  RH  036%=      5-min Rain = 0
KDO2 051954Z 34022G27KT 20/05 A3003 RMK A01 T02040052  RH  037%=      5-min Rain = 0
KDO2 051955Z 34023KT 21/05 A3003 RMK A01 T02060051  RH  036%=      5-min Rain = 0
KDO2 051956Z 33021KT 21/05 A3003 RMK A01 T02050048  RH  036%=      5-min Rain = 0
KDO2 051957Z 34019KT 20/05 A3003 RMK A01 T02030049  RH  036%=      5-min Rain = 0
KDO2 051958Z 33021G26KT 20/05 A3003 RMK A01 T02040050  RH  036%=      5-min Rain = 0
KDO2 051959Z 33025KT 20/05 A3003 RMK A01 T02040048  RH  036%=      5-min Rain = 0
KDO2 052000Z 34021KT 20/05 A3003 RMK A01 T02030047  RH  036%=      5-min Rain = 0
KDO2 052001Z 33023KT 20/05 A3003 RMK A01 T02010047  RH  036%=      5-min Rain = 0
KDO2 052002Z 34017KT 20/05 A3003 RMK A01 T02030050  RH  037%=      5-min Rain = 0
KDO2 052003Z 34019G25KT 21/05 A3003 RMK A01 T02090054  RH  036%=      5-min Rain = 0
KDO2 052004Z 34021KT 21/05 A3003 RMK A01 T02110052  RH  035%=      5-min Rain = 0
KDO2 052005Z 34019KT 21/05 A3003 RMK A01 T02090050  RH  035%=      5-min Rain = 0
KDO2 052006Z 34024KT 21/05 A3003 RMK A01 T02080051  RH  036%=      5-min Rain = 0
KDO2 052007Z 34018G24KT 21/05 A3003 RMK A01 T02060050  RH  036%=      5-min Rain = 0
KDO2 052008Z 33024KT 21/05 A3003 RMK A01 T02060050  RH  036%=      5-min Rain = 0
KDO2 052009Z 33021KT 20/05 A3003 RMK A01 T02040048  RH  036%=      5-min Rain = 0
KDO2 052010Z 33021KT 20/05 A3003 RMK A01 T02030047  RH  036%=      5-min Rain = 0
KDO2 052011Z 34023G28KT 20/05 A3003 RMK A01 T02030049  RH  037%=      5-min Rain = 0
KDO2 052012Z 34022KT 20/05 A3003 RMK A01 T02040050  RH  036%=      5-min Rain = 0
KDO2 052013Z 35018KT 20/05 A3003 RMK A01 T02030050  RH  037%=      5-min Rain = 0
KDO2 052014Z 34019G24KT 21/05 A3003 RMK A01 T02060052  RH  036%=      5-min Rain = 0
KDO2 052015Z 34024G29KT 21/05 A3003 RMK A01 T02100050  RH  035%=      5-min Rain = 0
KDO2 052016Z 34026KT 21/05 A3003 RMK A01 T02060047  RH  035%=      5-min Rain = 0
KDO2 052017Z 34020KT 20/05 A3003 RMK A01 T02030049  RH  036%=      5-min Rain = 0
KDO2 052018Z 34025KT 20/05 A3003 RMK A01 T02040049  RH  036%=      5-min Rain = 0
KDO2 052019Z 34023KT 20/05 A3003 RMK A01 T02040049  RH  036%=      5-min Rain = 0
KDO2 052020Z 34022KT 21/05 A3003 RMK A01 T02050049  RH  036%=      5-min Rain = 0
KDO2 052021Z 34022KT 21/05 A3003 RMK A01 T02050049  RH  036%=      5-min Rain = 0
KDO2 052022Z 34023KT 20/05 A3003 RMK A01 T02040049  RH  036%=      5-min Rain = 0
KDO2 052023Z 35023KT 21/05 A3003 RMK A01 T02050048  RH  036%=      5-min Rain = 0
KDO2 052024Z 35023KT 20/05 A3003 RMK A01 T02040048  RH  036%=      5-min Rain = 0
KDO2 052025Z 34023KT 20/05 A3003 RMK A01 T02040048  RH  036%=      5-min Rain = 0
KDO2 052026Z 34022KT 20/05 A3003 RMK A01 T02010048  RH  036%=      5-min Rain = 0
KDO2 052027Z 33023KT 20/05 A3003 RMK A01 T02020050  RH  037%=      5-min Rain = 0
KDO2 052028Z 34023KT 20/05 A3003 RMK A01 T02040049  RH  036%=      5-min Rain = 0
KDO2 052029Z 34017KT 20/05 A3003 RMK A01 T02040049  RH  036%=      5-min Rain = 0
KDO2 052030Z 34022KT 21/05 A3003 RMK A01 T02060050  RH  036%=      5-min Rain = 0
KDO2 052031Z 34023KT 21/05 A3003 RMK A01 T02070049  RH  036%=      5-min Rain = 0
KDO2 052032Z 35023G31KT 21/05 A3003 RMK A01 T02060049  RH  036%=      5-min Rain = 0
KDO2 052033Z 35023KT 21/05 A3003 RMK A01 T02060049  RH  036%=      5-min Rain = 0
KDO2 052034Z 33021KT 21/05 A3003 RMK A01 T02050049  RH  036%=      5-min Rain = 0
KDO2 052035Z 33024KT 21/05 A3003 RMK A01 T02050050  RH  036%=      5-min Rain = 0
KDO2 052036Z 33024KT 21/05 A3003 RMK A01 T02060049  RH  036%=      5-min Rain = 0
KDO2 052037Z 33022KT 21/05 A3003 RMK A01 T02050048  RH  036%=      5-min Rain = 0
KDO2 052038Z 34022KT 20/05 A3003 RMK A01 T02040048  RH  036%=      5-min Rain = 0
KDO2 052039Z 35022KT 20/05 A3003 RMK A01 T02030049  RH  036%=      5-min Rain = 0
KDO2 052040Z 34022KT 20/05 A3003 RMK A01 T02030050  RH  036%=      5-min Rain = 0
KDO2 052041Z 34020KT 20/05 A3003 RMK A01 T02030051  RH  037%=      5-min Rain = 0
KDO2 052042Z 34022KT 21/05 A3003 RMK A01 T02050051  RH  036%=      5-min Rain = 0
KDO2 052043Z 35021KT 21/05 A3003 RMK A01 T02060051  RH  036%=      5-min Rain = 0
KDO2 052044Z 34024KT 21/05 A3003 RMK A01 T02080051  RH  036%=      5-min Rain = 0
KDO2 052045Z 34023KT 21/05 A3003 RMK A01 T02070050  RH  036%=      5-min Rain = 0
KDO2 052046Z 34024G29KT 21/05 A3003 RMK A01 T02060051  RH  036%=      5-min Rain = 0
KDO2 052047Z 34023G28KT 21/05 A3003 RMK A01 T02060049  RH  036%=      5-min Rain = 0
KDO2 052048Z 34021KT 21/05 A3003 RMK A01 T02060050  RH  036%=      5-min Rain = 0
KDO2 052049Z 35021KT 21/05 A3003 RMK A01 T02060050  RH  036%=      5-min Rain = 0
KDO2 052050Z 35025KT 21/05 A3003 RMK A01 T02060049  RH  036%=      5-min Rain = 0
KDO2 052051Z 34021G26KT 20/05 A3003 RMK A01 T02040049  RH  036%=      5-min Rain = 0
KDO2 052052Z 34021KT 20/05 A3003 RMK A01 T02040050  RH  036%=      5-min Rain = 0
KDO2 052053Z 34022KT 20/05 A3003 RMK A01 T02030049  RH  036%=      5-min Rain = 0
KDO2 052054Z 33022KT 20/05 A3003 RMK A01 T02040051  RH  037%=      5-min Rain = 0
KDO2 052055Z 34025KT 21/05 A3004 RMK A01 T02050051  RH  036%=      5-min Rain = 0
KDO2 052056Z 34025KT 20/05 A3004 RMK A01 T02040049  RH  036%=      5-min Rain = 0
KDO2 052057Z 33022KT 20/05 A3004 RMK A01 T02020049  RH  036%=      5-min Rain = 0
KDO2 052058Z 33023KT 20/05 A3004 RMK A01 T02030050  RH  037%=      5-min Rain = 0
KDO2 052059Z 35021KT 20/05 A3004 RMK A01 T02020051  RH  037%=      5-min Rain = 0
KDO2 052100Z 34023KT 21/05 A3004 RMK A01 T02050054  RH  037%=      5-min Rain = 0
KDO2 052101Z 34026KT 21/05 A3004 RMK A01 T02060052  RH  036%=      5-min Rain = 0
KDO2 052102Z 33024G30KT 20/05 A3004 RMK A01 T02040051  RH  037%=      5-min Rain = 0
KDO2 052103Z 33023KT 20/05 A3004 RMK A01 T02040052  RH  037%=      5-min Rain = 0
KDO2 052104Z 34023G28KT 20/05 A3004 RMK A01 T02040053  RH  037%=      5-min Rain = 0
KDO2 052105Z 34024KT 20/05 A3004 RMK A01 T02040053  RH  037%=      5-min Rain = 0
KDO2 052106Z 33025G30KT 20/05 A3004 RMK A01 T02040052  RH  037%=      5-min Rain = 0
KDO2 052107Z 34025KT 20/05 A3004 RMK A01 T02020050  RH  037%=      5-min Rain = 0
KDO2 052108Z 34024KT 20/05 A3004 RMK A01 T02010051  RH  037%=      5-min Rain = 0
KDO2 052109Z 34024KT 20/05 A3004 RMK A01 T02020051  RH  037%=      5-min Rain = 0
KDO2 052110Z 34024KT 20/05 A3004 RMK A01 T02010051  RH  037%=      5-min Rain = 0
KDO2 052111Z 35023KT 20/05 A3004 RMK A01 T02010050  RH  037%=      5-min Rain = 0
KDO2 052112Z 33021KT 20/05 A3004 RMK A01 T02000051  RH  037%=      5-min Rain = 0
KDO2 052113Z 34023KT 20/05 A3004 RMK A01 T02010050  RH  037%=      5-min Rain = 0
KDO2 052114Z 34022KT 20/05 A3004 RMK A01 T02030051  RH  037%=      5-min Rain = 0
KDO2 052115Z 35021KT 20/05 A3004 RMK A01 T02020051  RH  037%=      5-min Rain = 0
KDO2 052116Z 35024G30KT 20/05 A3004 RMK A01 T02030052  RH  037%=      5-min Rain = 0
KDO2 052117Z 35021G26KT 20/05 A3004 RMK A01 T02020051  RH  037%=      5-min Rain = 0
KDO2 052118Z 35025KT 20/05 A3004 RMK A01 T02010051  RH  037%=      5-min Rain = 0
KDO2 052119Z 35023KT 20/05 A3004 RMK A01 T02010052  RH  037%=      5-min Rain = 0
KDO2 052120Z 34021G26KT 20/05 A3004 RMK A01 T02020051  RH  037%=      5-min Rain = 0
KDO2 052121Z 34018KT 20/05 A3004 RMK A01 T02020051  RH  037%=      5-min Rain = 0
KDO2 052122Z 34024KT 20/05 A3004 RMK A01 T02030053  RH  037%=      5-min Rain = 0
KDO2 052123Z 33020KT 20/05 A3004 RMK A01 T02030053  RH  037%=      5-min Rain = 0
KDO2 052124Z 33022G28KT 20/05 A3004 RMK A01 T02010053  RH  038%=      5-min Rain = 0
KDO2 052125Z 34024KT 20/05 A3004 RMK A01 T02000052  RH  038%=      5-min Rain = 0
KDO2 052126Z 35025KT 20/05 A3005 RMK A01 T02000050  RH  037%=      5-min Rain = 0
KDO2 052127Z 35021KT 20/05 A3005 RMK A01 T01990051  RH  038%=      5-min Rain = 0
KDO2 052128Z 36022KT 20/05 A3005 RMK A01 T01980049  RH  038%=      5-min Rain = 0
KDO2 052129Z 36021KT 20/05 A3005 RMK A01 T01950049  RH  038%=      5-min Rain = 0
KDO2 052130Z 35022G27KT 20/05 A3005 RMK A01 T01950050  RH  038%=      5-min Rain = 0
KDO2 052131Z 34018G23KT 20/05 A3005 RMK A01 T01950049  RH  038%=      5-min Rain = 0
KDO2 052132Z 35020G25KT 20/05 A3005 RMK A01 T01960050  RH  038%=      5-min Rain = 0
KDO2 052133Z 34021G26KT 20/05 A3005 RMK A01 T01980052  RH  038%=      5-min Rain = 0
KDO2 052134Z 35023KT 20/05 A3005 RMK A01 T01980051  RH  038%=      5-min Rain = 0
KDO2 052135Z 34024G29KT 20/05 A3005 RMK A01 T01980052  RH  038%=      5-min Rain = 0
KDO2 052136Z 34023G28KT 20/05 A3005 RMK A01 T01960049  RH  038%=      5-min Rain = 0
KDO2 052137Z 34021KT 19/05 A3006 RMK A01 T01940050  RH  039%=      5-min Rain = 0
KDO2 052138Z 34025KT 20/05 A3006 RMK A01 T01950050  RH  038%=      5-min Rain = 0
KDO2 052139Z 34024KT 20/05 A3006 RMK A01 T01950049  RH  038%=      5-min Rain = 0
KDO2 052140Z 34024G29KT 19/05 A3006 RMK A01 T01930049  RH  039%=      5-min Rain = 0
KDO2 052141Z 34025KT 19/05 A3006 RMK A01 T01920048  RH  039%=      5-min Rain = 0
KDO2 052142Z 34025KT 19/05 A3006 RMK A01 T01920049  RH  039%=      5-min Rain = 0
KDO2 052143Z 34025G30KT 19/05 A3006 RMK A01 T01920049  RH  039%=      5-min Rain = 0
KDO2 052144Z 34024KT 19/05 A3006 RMK A01 T01910049  RH  039%=      5-min Rain = 0
KDO2 052145Z 34023KT 19/05 A3006 RMK A01 T01920050  RH  039%=      5-min Rain = 0
KDO2 052146Z 34022G27KT 19/05 A3006 RMK A01 T01920050  RH  039%=      5-min Rain = 0
KDO2 052147Z 34025KT 19/05 A3006 RMK A01 T01920050  RH  039%=      5-min Rain = 0
KDO2 052148Z 35021KT 19/05 A3006 RMK A01 T01900049  RH  039%=      5-min Rain = 0
KDO2 052149Z 34019G24KT 19/05 A3006 RMK A01 T01920051  RH  040%=      5-min Rain = 0
KDO2 052150Z 34020KT 20/05 A3006 RMK A01 T01950052  RH  039%=      5-min Rain = 0
KDO2 052151Z 33019KT 20/05 A3006 RMK A01 T01970050  RH  038%=      5-min Rain = 0
KDO2 052152Z 35020G26KT 19/05 A3006 RMK A01 T01930048  RH  039%=      5-min Rain = 0
KDO2 052153Z 33023KT 19/05 A3006 RMK A01 T01900050  RH  040%=      5-min Rain = 0
KDO2 052154Z 34024KT 19/05 A3006 RMK A01 T01910050  RH  040%=      5-min Rain = 0
KDO2 052155Z 34022KT 19/05 A3007 RMK A01 T01920050  RH  039%=      5-min Rain = 0
KDO2 052156Z 34022KT 19/05 A3007 RMK A01 T01910049  RH  039%=      5-min Rain = 0
KDO2 052157Z 34023G28KT 19/05 A3007 RMK A01 T01910049  RH  039%=      5-min Rain = 0
KDO2 052158Z 34022KT 19/05 A3007 RMK A01 T01910047  RH  039%=      5-min Rain = 0
KDO2 052159Z 35021KT 19/05 A3007 RMK A01 T01910047  RH  039%=      5-min Rain = 0
KDO2 052200Z 36021G26KT 19/05 A3007 RMK A01 T01930047  RH  038%=      5-min Rain = 0
KDO2 052201Z 35021KT 19/05 A3007 RMK A01 T01930046  RH  038%=      5-min Rain = 0
KDO2 052202Z 35020G25KT 19/05 A3007 RMK A01 T01910047  RH  039%=      5-min Rain = 0
KDO2 052203Z 34020G25KT 19/05 A3007 RMK A01 T01920048  RH  039%=      5-min Rain = 0
KDO2 052204Z 34021KT 19/05 A3007 RMK A01 T01910048  RH  039%=      5-min Rain = 0
KDO2 052205Z 35022KT 19/05 A3007 RMK A01 T01930050  RH  039%=      5-min Rain = 0
KDO2 052206Z 36021KT 19/05 A3007 RMK A01 T01920048  RH  039%=      5-min Rain = 0
KDO2 052207Z 35018KT 19/05 A3007 RMK A01 T01910049  RH  039%=      5-min Rain = 0
KDO2 052208Z 35022KT 19/05 A3007 RMK A01 T01920049  RH  039%=      5-min Rain = 0
KDO2 052209Z 34019KT 19/05 A3008 RMK A01 T01920050  RH  039%=      5-min Rain = 0
KDO2 052210Z 34023KT 19/05 A3008 RMK A01 T01910050  RH  039%=      5-min Rain = 0
KDO2 052211Z 34023KT 19/05 A3008 RMK A01 T01880048  RH  040%=      5-min Rain = 0
KDO2 052212Z 34020KT 19/05 A3008 RMK A01 T01860048  RH  040%=      5-min Rain = 0
KDO2 052213Z 34019KT 19/05 A3008 RMK A01 T01860049  RH  041%=      5-min Rain = 0
KDO2 052214Z 34020KT 19/05 A3008 RMK A01 T01870050  RH  041%=      5-min Rain = 0
KDO2 052215Z 35016KT 19/05 A3008 RMK A01 T01870051  RH  041%=      5-min Rain = 0
KDO2 052216Z 35020KT 19/05 A3008 RMK A01 T01890050  RH  040%=      5-min Rain = 0
KDO2 052217Z 34019KT 19/05 A3008 RMK A01 T01870049  RH  040%=      5-min Rain = 0
KDO2 052218Z 34019KT 19/05 A3008 RMK A01 T01870050  RH  041%=      5-min Rain = 0
KDO2 052219Z 33020G25KT 19/05 A3008 RMK A01 T01870051  RH  041%=      5-min Rain = 0
KDO2 052220Z 33022KT 19/05 A3008 RMK A01 T01860050  RH  041%=      5-min Rain = 0
KDO2 052221Z 34020KT 18/05 A3008 RMK A01 T01830048  RH  041%=      5-min Rain = 0
KDO2 052222Z 34018KT 18/05 A3008 RMK A01 T01820049  RH  042%=      5-min Rain = 0
KDO2 052223Z 34021KT 18/05 A3008 RMK A01 T01820050  RH  042%=      5-min Rain = 0
KDO2 052224Z 34019KT 18/05 A3009 RMK A01 T01820049  RH  042%=      5-min Rain = 0
KDO2 052225Z 35021KT 18/05 A3009 RMK A01 T01820049  RH  042%=      5-min Rain = 0
KDO2 052226Z 34020KT 18/05 A3009 RMK A01 T01800048  RH  042%=      5-min Rain = 0
KDO2 052227Z 34021KT 18/05 A3009 RMK A01 T01790047  RH  042%=      5-min Rain = 0
KDO2 052228Z 35019KT 18/05 A3009 RMK A01 T01780048  RH  042%=      5-min Rain = 0
KDO2 052229Z 34016KT 18/05 A3009 RMK A01 T01770048  RH  042%=      5-min Rain = 0
KDO2 052230Z 34017KT 18/05 A3009 RMK A01 T01770048  RH  042%=      5-min Rain = 0
KDO2 052231Z 34020KT 18/05 A3009 RMK A01 T01780048  RH  042%=      5-min Rain = 0
KDO2 052232Z 34019KT 18/05 A3009 RMK A01 T01770048  RH  042%=      5-min Rain = 0
KDO2 052233Z 34018KT 18/05 A3009 RMK A01 T01770048  RH  043%=      5-min Rain = 0
KDO2 052234Z 35016G26KT 18/05 A3009 RMK A01 T01780049  RH  043%=      5-min Rain = 0
KDO2 052235Z 35022KT 18/05 A3009 RMK A01 T01770048  RH  042%=      5-min Rain = 0
KDO2 052236Z 34022KT 18/05 A3009 RMK A01 T01760048  RH  043%=      5-min Rain = 0
KDO2 052237Z 34022KT 18/05 A3009 RMK A01 T01750047  RH  043%=      5-min Rain = 0
KDO2 052238Z 34021KT 18/05 A3009 RMK A01 T01750046  RH  043%=      5-min Rain = 0
KDO2 052239Z 34019KT 17/05 A3009 RMK A01 T01740046  RH  043%=      5-min Rain = 0
KDO2 052240Z 35023KT 17/05 A3009 RMK A01 T01740045  RH  042%=      5-min Rain = 0
KDO2 052241Z 35021KT 17/05 A3009 RMK A01 T01740045  RH  042%=      5-min Rain = 0
KDO2 052242Z 35021KT 17/05 A3009 RMK A01 T01730045  RH  043%=      5-min Rain = 0
KDO2 052243Z 35019KT 17/05 A3009 RMK A01 T01730045  RH  043%=      5-min Rain = 0
KDO2 052244Z 35017KT 17/05 A3009 RMK A01 T01740046  RH  043%=      5-min Rain = 0
KDO2 052245Z 34016KT 17/05 A3009 RMK A01 T01740046  RH  043%=      5-min Rain = 0
KDO2 052246Z 34019KT 17/05 A3009 RMK A01 T01740046  RH  043%=      5-min Rain = 0
KDO2 052247Z 34016KT 17/05 A3009 RMK A01 T01740047  RH  043%=      5-min Rain = 0
KDO2 052248Z 34017KT 17/05 A301 RMK A01 T01740048  RH  043%=      5-min Rain = 0
KDO2 052249Z 34019KT 17/05 A301 RMK A01 T01740048  RH  043%=      5-min Rain = 0
KDO2 052250Z 34019KT 17/05 A301 RMK A01 T01730048  RH  044%=      5-min Rain = 0
KDO2 052251Z 34021G26KT 17/05 A301 RMK A01 T01730049  RH  044%=      5-min Rain = 0
KDO2 052252Z 34019KT 17/05 A301 RMK A01 T01720050  RH  044%=      5-min Rain = 0
KDO2 052253Z 34022KT 17/05 A301 RMK A01 T01710050  RH  045%=      5-min Rain = 0
KDO2 052254Z 35021KT 17/05 A301 RMK A01 T01700050  RH  045%=      5-min Rain = 0
KDO2 052255Z 34018KT 17/05 A301 RMK A01 T01700050  RH  045%=      5-min Rain = 0
KDO2 052256Z 34019KT 17/05 A301 RMK A01 T01700050  RH  045%=      5-min Rain = 0
KDO2 052257Z 34018KT 17/05 A301 RMK A01 T01700050  RH  045%=      5-min Rain = 0
KDO2 052258Z 34019KT 17/05 A301 RMK A01 T01700050  RH  045%=      5-min Rain = 0
KDO2 052259Z 34018G24KT 17/05 A301 RMK A01 T01690050  RH  045%=      5-min Rain = 0
KDO2 052300Z 34017KT 17/05 A301 RMK A01 T01690051  RH  046%=      5-min Rain = 0
KDO2 052301Z 34019G25KT 17/05 A301 RMK A01 T01690051  RH  046%=      5-min Rain = 0
KDO2 052302Z 34019KT 17/05 A301 RMK A01 T01690051  RH  046%=      5-min Rain = 0
KDO2 052303Z 33019KT 17/05 A301 RMK A01 T01690051  RH  045%=      5-min Rain = 0
KDO2 052304Z 33020G26KT 17/05 A301 RMK A01 T01690051  RH  046%=      5-min Rain = 0
KDO2 052305Z 34018KT 17/05 A301 RMK A01 T01680050  RH  045%=      5-min Rain = 0
KDO2 052306Z 33019KT 17/05 A301 RMK A01 T01680049  RH  045%=      5-min Rain = 0
KDO2 052307Z 34017KT 17/05 A301 RMK A01 T01670049  RH  045%=      5-min Rain = 0
KDO2 052308Z 34015G20KT 17/05 A301 RMK A01 T01670049  RH  046%=      5-min Rain = 0
KDO2 052309Z 34020KT 17/05 A301 RMK A01 T01680049  RH  045%=      5-min Rain = 0
KDO2 052310Z 34021KT 17/05 A301 RMK A01 T01680049  RH  045%=      5-min Rain = 0
KDO2 052311Z 34017G22KT 17/05 A301 RMK A01 T01680050  RH  046%=      5-min Rain = 0
KDO2 052312Z 34019KT 17/05 A3011 RMK A01 T01680050  RH  046%=      5-min Rain = 0
KDO2 052313Z 34018G25KT 17/05 A3011 RMK A01 T01680051  RH  046%=      5-min Rain = 0
KDO2 052314Z 33021KT 17/05 A3011 RMK A01 T01660050  RH  046%=      5-min Rain = 0
KDO2 052315Z 34016KT 16/05 A3011 RMK A01 T01640051  RH  047%=      5-min Rain = 0
KDO2 052316Z 34017G22KT 17/05 A3011 RMK A01 T01650051  RH  047%=      5-min Rain = 0
KDO2 052317Z 34017KT 17/05 A3011 RMK A01 T01650051  RH  047%=      5-min Rain = 0
KDO2 052318Z 34017KT 16/05 A3011 RMK A01 T01640051  RH  047%=      5-min Rain = 0
KDO2 052319Z 34018KT 16/05 A3011 RMK A01 T01640051  RH  047%=      5-min Rain = 0
KDO2 052320Z 34020KT 16/05 A3011 RMK A01 T01630051  RH  047%=      5-min Rain = 0
KDO2 052321Z 34015KT 16/05 A3011 RMK A01 T01620051  RH  048%=      5-min Rain = 0
KDO2 052322Z 34017KT 16/05 A3011 RMK A01 T01620051  RH  048%=      5-min Rain = 0
KDO2 052323Z 34017G24KT 16/05 A3011 RMK A01 T01630051  RH  047%=      5-min Rain = 0
KDO2 052324Z 34022KT 16/05 A3011 RMK A01 T01620051  RH  048%=      5-min Rain = 0
KDO2 052325Z 34020KT 16/05 A3011 RMK A01 T01610051  RH  048%=      5-min Rain = 0
KDO2 052326Z 34017KT 16/05 A3012 RMK A01 T01610051  RH  048%=      5-min Rain = 0
KDO2 052327Z 34018KT 16/05 A3012 RMK A01 T01600051  RH  048%=      5-min Rain = 0
KDO2 052328Z 35019KT 16/05 A3012 RMK A01 T01600051  RH  048%=      5-min Rain = 0
KDO2 052329Z 34019KT 16/05 A3012 RMK A01 T01610052  RH  048%=      5-min Rain = 0
KDO2 052330Z 34019KT 16/05 A3012 RMK A01 T01600052  RH  049%=      5-min Rain = 0
KDO2 052331Z 35018KT 16/05 A3012 RMK A01 T01600051  RH  049%=      5-min Rain = 0
KDO2 052332Z 35018G24KT 16/05 A3012 RMK A01 T01600051  RH  048%=      5-min Rain = 0
KDO2 052333Z 35018G23KT 16/05 A3012 RMK A01 T01600051  RH  048%=      5-min Rain = 0
KDO2 052334Z 34019KT 16/05 A3012 RMK A01 T01600051  RH  048%=      5-min Rain = 0
KDO2 052335Z 34020KT 16/05 A3012 RMK A01 T01590050  RH  048%=      5-min Rain = 0
KDO2 052336Z 34022KT 16/05 A3012 RMK A01 T01580047  RH  047%=      5-min Rain = 0
KDO2 052337Z 33022KT 16/05 A3012 RMK A01 T01580046  RH  047%=      5-min Rain = 0
KDO2 052338Z 34022KT 16/05 A3012 RMK A01 T01570045  RH  047%=      5-min Rain = 0
KDO2 052339Z 34023KT 16/05 A3012 RMK A01 T01560045  RH  048%=      5-min Rain = 0
KDO2 052340Z 34021KT 16/05 A3012 RMK A01 T01560046  RH  048%=      5-min Rain = 0
KDO2 052341Z 34019KT 16/05 A3012 RMK A01 T01550046  RH  048%=      5-min Rain = 0
KDO2 052342Z 34020KT 16/05 A3012 RMK A01 T01550046  RH  048%=      5-min Rain = 0
KDO2 052343Z 34018KT 16/05 A3012 RMK A01 T01550046  RH  048%=      5-min Rain = 0
KDO2 052344Z 34019KT 16/05 A3012 RMK A01 T01550047  RH  048%=      5-min Rain = 0
KDO2 052345Z 34021KT 16/05 A3012 RMK A01 T01550047  RH  049%=      5-min Rain = 0
KDO2 052346Z 34021KT 15/05 A3013 RMK A01 T01540048  RH  049%=      5-min Rain = 0
KDO2 052347Z 34019KT 16/05 A3013 RMK A01 T01550048  RH  049%=      5-min Rain = 0
KDO2 052348Z 34021G28KT 15/05 A3013 RMK A01 T01540049  RH  049%=      5-min Rain = 0
KDO2 052349Z 34019KT 15/05 A3013 RMK A01 T01540048  RH  049%=      5-min Rain = 0
KDO2 052350Z 34020G26KT 15/05 A3013 RMK A01 T01540048  RH  049%=      5-min Rain = 0
KDO2 052351Z 34022KT 15/05 A3013 RMK A01 T01540046  RH  048%=      5-min Rain = 0
KDO2 052352Z 35023KT 15/05 A3013 RMK A01 T01530045  RH  048%=      5-min Rain = 0
KDO2 052353Z 35023KT 15/04 A3013 RMK A01 T01530044  RH  048%=      5-min Rain = 0
KDO2 052354Z 35021G29KT 15/04 A3013 RMK A01 T01520044  RH  048%=      5-min Rain = 0
KDO2 052355Z 34024KT 15/04 A3013 RMK A01 T01510044  RH  049%=      5-min Rain = 0
KDO2 052356Z 34021KT 15/04 A3013 RMK A01 T01510044  RH  049%=      5-min Rain = 0
KDO2 052357Z 34018KT 15/04 A3013 RMK A01 T01510044  RH  049%=      5-min Rain = 0
KDO2 052358Z 33021KT 15/04 A3013 RMK A01 T01510044  RH  049%=      5-min Rain = 0
KDO2 052359Z 34020KT 15/04 A3013 RMK A01 T01510044  RH  049%=      5-min Rain = 0
KDO2 060000Z 35019KT 15/04 A3013 RMK A01 T01510044  RH  049%=      5-min Rain = 0
KDO2 060001Z 34018KT 15/04 A3014 RMK A01 T01500044  RH  049%=      5-min Rain = 0
KDO2 060002Z 36019KT 15/05 A3014 RMK A01 T01500045  RH  049%=      5-min Rain = 0
KDO2 060003Z 36021KT 15/05 A3014 RMK A01 T01500045  RH  050%=      5-min Rain = 0
KDO2 060004Z 36019KT 15/05 A3014 RMK A01 T01490045  RH  050%=      5-min Rain = 0
KDO2 060005Z 35020KT 15/05 A3014 RMK A01 T01480046  RH  050%=      5-min Rain = 0
KDO2 060006Z 36018KT 15/05 A3014 RMK A01 T01480046  RH  050%=      5-min Rain = 0
KDO2 060007Z 35017KT 15/05 A3014 RMK A01 T01480046  RH  050%=      5-min Rain = 0
KDO2 060008Z 35020KT 15/05 A3014 RMK A01 T01480046  RH  050%=      5-min Rain = 0
KDO2 060009Z 35019G24KT 15/05 A3014 RMK A01 T01480045  RH  050%=      5-min Rain = 0
KDO2 060010Z 35023KT 15/05 A3014 RMK A01 T01470045  RH  050%=      5-min Rain = 0
KDO2 060011Z 35023G28KT 15/05 A3014 RMK A01 T01470045  RH  050%=      5-min Rain = 0
KDO2 060012Z 34021KT 15/05 A3014 RMK A01 T01460045  RH  050%=      5-min Rain = 0
KDO2 060013Z 35018KT 15/04 A3014 RMK A01 T01460044  RH  050%=      5-min Rain = 0
KDO2 060014Z 35018KT 15/04 A3014 RMK A01 T01460044  RH  050%=      5-min Rain = 0
KDO2 060015Z 35020KT 15/04 A3014 RMK A01 T01450044  RH  050%=      5-min Rain = 0
KDO2 060016Z 36021G27KT 15/04 A3014 RMK A01 T01450044  RH  051%=      5-min Rain = 0
KDO2 060017Z 35023KT 15/04 A3014 RMK A01 T01450044  RH  051%=      5-min Rain = 0
KDO2 060018Z 36020KT 14/04 A3015 RMK A01 T01440043  RH  051%=      5-min Rain = 0
KDO2 060019Z 35019KT 14/04 A3015 RMK A01 T01440044  RH  051%=      5-min Rain = 0
KDO2 060020Z 35018KT 14/04 A3015 RMK A01 T01430044  RH  051%=      5-min Rain = 0
KDO2 060021Z 36016KT 14/04 A3015 RMK A01 T01430043  RH  051%=      5-min Rain = 0
KDO2 060022Z 36020KT 14/04 A3015 RMK A01 T01430043  RH  051%=      5-min Rain = 0
KDO2 060023Z 36018G23KT 14/04 A3015 RMK A01 T01420043  RH  051%=      5-min Rain = 0
KDO2 060024Z 00019KT 14/04 A3015 RMK A01 T01420043  RH  051%=      5-min Rain = 0
KDO2 060025Z 36019KT 14/04 A3015 RMK A01 T01420043  RH  051%=      5-min Rain = 0
KDO2 060026Z 36018KT 14/04 A3015 RMK A01 T01410043  RH  052%=      5-min Rain = 0
KDO2 060027Z 36019KT 14/04 A3016 RMK A01 T01410043  RH  052%=      5-min Rain = 0
KDO2 060028Z 00020KT 14/04 A3016 RMK A01 T01410043  RH  052%=      5-min Rain = 0
KDO2 060029Z 36018KT 14/04 A3016 RMK A01 T01410044  RH  052%=      5-min Rain = 0
KDO2 060030Z 35017KT 14/04 A3016 RMK A01 T01410044  RH  052%=      5-min Rain = 0
KDO2 060031Z 36016KT 14/04 A3016 RMK A01 T01410044  RH  052%=      5-min Rain = 0
KDO2 060032Z 36018KT 14/04 A3016 RMK A01 T01410044  RH  052%=      5-min Rain = 0
KDO2 060033Z 35015KT 14/04 A3016 RMK A01 T01410044  RH  052%=      5-min Rain = 0
KDO2 060034Z 35017KT 14/04 A3016 RMK A01 T01410044  RH  052%=      5-min Rain = 0
KDO2 060035Z 35018KT 14/04 A3016 RMK A01 T01410044  RH  052%=      5-min Rain = 0
KDO2 060036Z 35016KT 14/04 A3016 RMK A01 T01410044  RH  052%=      5-min Rain = 0
KDO2 060037Z 35015KT 14/04 A3016 RMK A01 T01400044  RH  052%=      5-min Rain = 0
KDO2 060038Z 35016KT 14/04 A3016 RMK A01 T01400044  RH  052%=      5-min Rain = 0
KDO2 060039Z 34019KT 14/05 A3017 RMK A01 T01400045  RH  053%=      5-min Rain = 0
KDO2 060040Z 34018KT 14/05 A3017 RMK A01 T01400045  RH  053%=      5-min Rain = 0
KDO2 060041Z 35020G25KT 14/05 A3017 RMK A01 T01400045  RH  053%=      5-min Rain = 0
KDO2 060042Z 35019KT 14/05 A3017 RMK A01 T01390046  RH  053%=      5-min Rain = 0
KDO2 060043Z 35017KT 14/05 A3017 RMK A01 T01390046  RH  053%=      5-min Rain = 0
KDO2 060044Z 34016KT 14/05 A3017 RMK A01 T01390046  RH  054%=      5-min Rain = 0
KDO2 060045Z 34017KT 14/05 A3017 RMK A01 T01380046  RH  054%=      5-min Rain = 0
KDO2 060046Z 34016KT 14/05 A3017 RMK A01 T01380046  RH  054%=      5-min Rain = 0
KDO2 060047Z 35018G23KT 14/05 A3017 RMK A01 T01380047  RH  054%=      5-min Rain = 0
KDO2 060048Z 34019KT 14/05 A3017 RMK A01 T01380047  RH  054%=      5-min Rain = 0
KDO2 060049Z 35018KT 14/05 A3017 RMK A01 T01380048  RH  054%=      5-min Rain = 0
KDO2 060050Z 34019KT 14/05 A3017 RMK A01 T01380048  RH  055%=      5-min Rain = 0
KDO2 060051Z 34018KT 14/05 A3017 RMK A01 T01370048  RH  055%=      5-min Rain = 0
KDO2 060052Z 34016KT 14/05 A3017 RMK A01 T01370048  RH  055%=      5-min Rain = 0
KDO2 060053Z 33017KT 14/05 A3017 RMK A01 T01370049  RH  055%=      5-min Rain = 0
KDO2 060054Z 34018KT 14/05 A3017 RMK A01 T01370048  RH  055%=      5-min Rain = 0
KDO2 060055Z 34017KT 14/05 A3017 RMK A01 T01360048  RH  055%=      5-min Rain = 0
KDO2 060056Z 35015KT 14/05 A3017 RMK A01 T01360049  RH  055%=      5-min Rain = 0
KDO2 060057Z 35021G27KT 14/05 A3017 RMK A01 T01360048  RH  055%=      5-min Rain = 0
KDO2 060058Z 35022KT 14/05 A3017 RMK A01 T01360048  RH  055%=      5-min Rain = 0
KDO2 060059Z 35023KT 14/05 A3017 RMK A01 T01350047  RH  055%=      5-min Rain = 0
KDO2 060100Z 34021KT 13/05 A3017 RMK A01 T01340047  RH  055%=      5-min Rain = 0
KDO2 060101Z 34022G27KT 13/05 A3017 RMK A01 T01340047  RH  056%=      5-min Rain = 0
KDO2 060102Z 34020KT 13/05 A3018 RMK A01 T01330046  RH  056%=      5-min Rain = 0
KDO2 060103Z 34022G27KT 13/05 A3018 RMK A01 T01330046  RH  056%=      5-min Rain = 0
KDO2 060104Z 34021KT 13/05 A3018 RMK A01 T01320047  RH  056%=      5-min Rain = 0
KDO2 060105Z 34019G24KT 13/05 A3018 RMK A01 T01320047  RH  056%=      5-min Rain = 0
KDO2 060106Z 34020KT 13/05 A3018 RMK A01 T01320047  RH  057%=      5-min Rain = 0
KDO2 060107Z 34018KT 13/05 A3018 RMK A01 T01310048  RH  057%=      5-min Rain = 0
KDO2 060108Z 34017KT 13/05 A3018 RMK A01 T01310048  RH  057%=      5-min Rain = 0
KDO2 060109Z 34016KT 13/05 A3018 RMK A01 T01310048  RH  057%=      5-min Rain = 0
KDO2 060110Z 34016KT 13/05 A3018 RMK A01 T01310049  RH  057%=      5-min Rain = 0
KDO2 060111Z 34016KT 13/05 A3018 RMK A01 T01310048  RH  057%=      5-min Rain = 0
KDO2 060112Z 34015KT 13/05 A3018 RMK A01 T01310049  RH  057%=      5-min Rain = 0
KDO2 060113Z 34015KT 13/05 A3018 RMK A01 T01310049  RH  057%=      5-min Rain = 0
KDO2 060114Z 33014KT 13/05 A3018 RMK A01 T01310049  RH  058%=      5-min Rain = 0
KDO2 060115Z 33015KT 13/05 A3018 RMK A01 T01310049  RH  058%=      5-min Rain = 0
KDO2 060116Z 33013KT 13/05 A3018 RMK A01 T01310049  RH  057%=      5-min Rain = 0
KDO2 060117Z 34016KT 13/05 A3018 RMK A01 T01310048  RH  057%=      5-min Rain = 0
KDO2 060118Z 33015KT 13/05 A3018 RMK A01 T01310048  RH  057%=      5-min Rain = 0
KDO2 060119Z 33013KT 13/05 A3018 RMK A01 T01300048  RH  057%=      5-min Rain = 0
KDO2 060120Z 33015KT 13/05 A3018 RMK A01 T01310048  RH  057%=      5-min Rain = 0
KDO2 060121Z 33012KT 13/05 A3018 RMK A01 T01310048  RH  057%=      5-min Rain = 0
KDO2 060122Z 33012KT 13/05 A3018 RMK A01 T01310048  RH  057%=      5-min Rain = 0
KDO2 060123Z 33017KT 13/05 A3019 RMK A01 T01300047  RH  057%=      5-min Rain = 0
KDO2 060124Z 33017KT 13/05 A3019 RMK A01 T01300046  RH  057%=      5-min Rain = 0
KDO2 060125Z 33018KT 13/05 A3019 RMK A01 T01300046  RH  057%=      5-min Rain = 0
KDO2 060126Z 34019KT 13/05 A3019 RMK A01 T01300047  RH  057%=      5-min Rain = 0
KDO2 060127Z 33016KT 13/05 A3019 RMK A01 T01300047  RH  057%=      5-min Rain = 0
KDO2 060128Z 34020KT 13/05 A3019 RMK A01 T01300047  RH  057%=      5-min Rain = 0
KDO2 060129Z 34016KT 13/05 A3019 RMK A01 T01300047  RH  057%=      5-min Rain = 0
KDO2 060130Z 34016KT 13/05 A3019 RMK A01 T01300047  RH  057%=      5-min Rain = 0
KDO2 060131Z 34019KT 13/05 A3019 RMK A01 T01300047  RH  057%=      5-min Rain = 0
KDO2 060132Z 34019KT 13/05 A3019 RMK A01 T01300048  RH  057%=      5-min Rain = 0
KDO2 060133Z 33017G22KT 13/05 A3019 RMK A01 T01300048  RH  058%=      5-min Rain = 0
KDO2 060134Z 33015KT 13/05 A3019 RMK A01 T01290048  RH  058%=      5-min Rain = 0
KDO2 060135Z 33018KT 13/05 A3019 RMK A01 T01290049  RH  058%=      5-min Rain = 0
KDO2 060136Z 33019KT 13/05 A3019 RMK A01 T01290049  RH  058%=      5-min Rain = 0
KDO2 060137Z 34016KT 13/05 A302 RMK A01 T01290049  RH  059%=      5-min Rain = 0
KDO2 060138Z 34018KT 13/05 A302 RMK A01 T01290049  RH  059%=      5-min Rain = 0
KDO2 060139Z 34019KT 13/05 A302 RMK A01 T01280050  RH  059%=      5-min Rain = 0
KDO2 060140Z 34018KT 13/05 A302 RMK A01 T01280050  RH  059%=      5-min Rain = 0
KDO2 060141Z 34017KT 13/05 A302 RMK A01 T01280050  RH  059%=      5-min Rain = 0
KDO2 060142Z 34015KT 13/05 A302 RMK A01 T01280050  RH  059%=      5-min Rain = 0
KDO2 060143Z 34016KT 13/05 A302 RMK A01 T01280050  RH  059%=      5-min Rain = 0
KDO2 060144Z 34016KT 13/05 A302 RMK A01 T01280051  RH  059%=      5-min Rain = 0
KDO2 060145Z 34016KT 13/05 A302 RMK A01 T01280051  RH  059%=      5-min Rain = 0
KDO2 060146Z 34014KT 13/05 A302 RMK A01 T01280051  RH  060%=      5-min Rain = 0
KDO2 060147Z 34013KT 13/05 A302 RMK A01 T01280051  RH  060%=      5-min Rain = 0
KDO2 060148Z 35011KT 13/05 A302 RMK A01 T01280051  RH  060%=      5-min Rain = 0
KDO2 060149Z 35011KT 13/05 A302 RMK A01 T01270051  RH  060%=      5-min Rain = 0
KDO2 060150Z 35013G18KT 13/05 A302 RMK A01 T01270051  RH  060%=      5-min Rain = 0
KDO2 060151Z 35015KT 13/05 A302 RMK A01 T01280052  RH  060%=      5-min Rain = 0
KDO2 060152Z 35017KT 13/05 A302 RMK A01 T01270052  RH  060%=      5-min Rain = 0
KDO2 060153Z 34016KT 13/05 A302 RMK A01 T01270052  RH  060%=      5-min Rain = 0
KDO2 060154Z 34015KT 13/05 A3021 RMK A01 T01270053  RH  060%=      5-min Rain = 0
KDO2 060155Z 34016KT 13/05 A3021 RMK A01 T01270053  RH  061%=      5-min Rain = 0
KDO2 060156Z 34015KT 13/05 A3021 RMK A01 T01270053  RH  061%=      5-min Rain = 0
KDO2 060157Z 34018KT 13/05 A3021 RMK A01 T01270053  RH  061%=      5-min Rain = 0
KDO2 060158Z 34017KT 13/05 A3021 RMK A01 T01260053  RH  061%=      5-min Rain = 0
KDO2 060159Z 35017KT 13/05 A3021 RMK A01 T01270054  RH  061%=      5-min Rain = 0
KDO2 060200Z 35019G25KT 13/05 A3021 RMK A01 T01260054  RH  061%=      5-min Rain = 0
KDO2 060201Z 35021G26KT 13/06 A3021 RMK A01 T01260055  RH  062%=      5-min Rain = 0
KDO2 060202Z 35021KT 13/06 A3021 RMK A01 T01260055  RH  062%=      5-min Rain = 0
KDO2 060203Z 35023KT 13/06 A3021 RMK A01 T01260056  RH  062%=      5-min Rain = 0
KDO2 060204Z 35022KT 13/06 A3021 RMK A01 T01260056  RH  062%=      5-min Rain = 0
KDO2 060205Z 35020G27KT 13/06 A3021 RMK A01 T01260056  RH  063%=      5-min Rain = 0
KDO2 060206Z 35020KT 13/06 A3021 RMK A01 T01260056  RH  063%=      5-min Rain = 0
KDO2 060207Z 35019G24KT 13/06 A3021 RMK A01 T01250057  RH  063%=      5-min Rain = 0
KDO2 060208Z 35019KT 13/06 A3021 RMK A01 T01250057  RH  063%=      5-min Rain = 0
KDO2 060209Z 35018KT 13/06 A3021 RMK A01 T01250057  RH  063%=      5-min Rain = 0
KDO2 060210Z 35019KT 13/06 A3021 RMK A01 T01250057  RH  063%=      5-min Rain = 0
KDO2 060211Z 35019G24KT 13/06 A3021 RMK A01 T01250057  RH  063%=      5-min Rain = 0
KDO2 060212Z 35019KT 13/06 A3021 RMK A01 T01250057  RH  063%=      5-min Rain = 0
KDO2 060213Z 34022KT 13/06 A3021 RMK A01 T01250057  RH  063%=      5-min Rain = 0
KDO2 060214Z 35016KT 13/06 A3021 RMK A01 T01250058  RH  064%=      5-min Rain = 0
KDO2 060215Z 35013KT 12/06 A3021 RMK A01 T01240057  RH  064%=      5-min Rain = 0
KDO2 060216Z 35015KT 12/06 A3021 RMK A01 T01240057  RH  064%=      5-min Rain = 0
KDO2 060217Z 35014KT 12/06 A3021 RMK A01 T01240058  RH  064%=      5-min Rain = 0
KDO2 060218Z 35012KT 12/06 A3021 RMK A01 T01240058  RH  064%=      5-min Rain = 0
KDO2 060219Z 34015KT 12/06 A3021 RMK A01 T01240058  RH  064%=      5-min Rain = 0
KDO2 060220Z 35015KT 12/06 A3021 RMK A01 T01240058  RH  064%=      5-min Rain = 0
KDO2 060221Z 35017KT 12/06 A3021 RMK A01 T01240058  RH  064%=      5-min Rain = 0
KDO2 060222Z 34013KT 12/06 A3021 RMK A01 T01230058  RH  064%=      5-min Rain = 0
KDO2 060223Z 35013KT 12/06 A3021 RMK A01 T01230058  RH  064%=      5-min Rain = 0
KDO2 060224Z 34015KT 12/06 A3021 RMK A01 T01230058  RH  064%=      5-min Rain = 0
KDO2 060225Z 35015KT 12/06 A3021 RMK A01 T01230058  RH  064%=      5-min Rain = 0
KDO2 060226Z 35016KT 12/06 A3021 RMK A01 T01230058  RH  064%=      5-min Rain = 0
KDO2 060227Z 35015KT 12/06 A3022 RMK A01 T01230058  RH  064%=      5-min Rain = 0
KDO2 060228Z 34015KT 12/06 A3022 RMK A01 T01230058  RH  064%=      5-min Rain = 0
KDO2 060229Z 34014KT 12/06 A3022 RMK A01 T01230058  RH  064%=      5-min Rain = 0
KDO2 060230Z 34015KT 12/06 A3022 RMK A01 T01230058  RH  065%=      5-min Rain = 0
KDO2 060231Z 34015KT 12/06 A3022 RMK A01 T01230059  RH  065%=      5-min Rain = 0
KDO2 060232Z 35015KT 12/06 A3022 RMK A01 T01220059  RH  065%=      5-min Rain = 0
KDO2 060233Z 35016KT 12/06 A3022 RMK A01 T01220059  RH  065%=      5-min Rain = 0
KDO2 060234Z 34015KT 12/06 A3022 RMK A01 T01220059  RH  065%=      5-min Rain = 0
KDO2 060235Z 35015KT 12/06 A3022 RMK A01 T01220060  RH  065%=      5-min Rain = 0
KDO2 060236Z 34017KT 12/06 A3022 RMK A01 T01220060  RH  066%=      5-min Rain = 0
KDO2 060237Z 35016KT 12/06 A3022 RMK A01 T01220060  RH  066%=      5-min Rain = 0
KDO2 060238Z 34016KT 12/06 A3022 RMK A01 T01220061  RH  066%=      5-min Rain = 0
KDO2 060239Z 35015KT 12/06 A3022 RMK A01 T01220060  RH  066%=      5-min Rain = 0
KDO2 060240Z 35014KT 12/06 A3022 RMK A01 T01220060  RH  066%=      5-min Rain = 0
KDO2 060241Z 34015KT 12/06 A3022 RMK A01 T01220060  RH  066%=      5-min Rain = 0
KDO2 060242Z 35014KT 12/06 A3022 RMK A01 T01220060  RH  066%=      5-min Rain = 0
KDO2 060243Z 34017KT 12/06 A3023 RMK A01 T01220061  RH  066%=      5-min Rain = 0
KDO2 060244Z 34016KT 12/06 A3023 RMK A01 T01220061  RH  066%=      5-min Rain = 0
KDO2 060245Z 34014KT 12/06 A3023 RMK A01 T01220061  RH  066%=      5-min Rain = 0
KDO2 060246Z 35014KT 12/06 A3023 RMK A01 T01220061  RH  066%=      5-min Rain = 0
KDO2 060247Z 34015KT 12/06 A3023 RMK A01 T01220061  RH  067%=      5-min Rain = 0
KDO2 060248Z 34016KT 12/06 A3023 RMK A01 T01220062  RH  067%=      5-min Rain = 0
KDO2 060249Z 34015KT 12/06 A3023 RMK A01 T01220062  RH  067%=      5-min Rain = 0
KDO2 060250Z 35013KT 12/06 A3023 RMK A01 T01210062  RH  067%=      5-min Rain = 0
KDO2 060251Z 35012KT 12/06 A3023 RMK A01 T01210061  RH  067%=      5-min Rain = 0
KDO2 060252Z 35013KT 12/06 A3023 RMK A01 T01210062  RH  067%=      5-min Rain = 0
KDO2 060253Z 35015KT 12/06 A3023 RMK A01 T01210062  RH  067%=      5-min Rain = 0
KDO2 060254Z 34013KT 12/06 A3023 RMK A01 T01220062  RH  067%=      5-min Rain = 0
KDO2 060255Z 34011KT 12/06 A3023 RMK A01 T01210062  RH  067%=      5-min Rain = 0
KDO2 060256Z 34011KT 12/06 A3023 RMK A01 T01210062  RH  067%=      5-min Rain = 0
KDO2 060257Z 34013G18KT 12/06 A3023 RMK A01 T01220062  RH  067%=      5-min Rain = 0
KDO2 060258Z 35015KT 12/06 A3023 RMK A01 T01220062  RH  067%=      5-min Rain = 0
KDO2 060259Z 34013KT 12/06 A3023 RMK A01 T01210062  RH  067%=      5-min Rain = 0
KDO2 060300Z 34014KT 12/06 A3023 RMK A01 T01210062  RH  067%=      5-min Rain = 0
KDO2 060301Z 34014KT 12/06 A3023 RMK A01 T01210062  RH  067%=      5-min Rain = 0
KDO2 060302Z 34013KT 12/06 A3023 RMK A01 T01210062  RH  067%=      5-min Rain = 0
KDO2 060303Z 34013KT 12/06 A3023 RMK A01 T01210062  RH  067%=      5-min Rain = 0
KDO2 060304Z 34012KT 12/06 A3023 RMK A01 T01210062  RH  067%=      5-min Rain = 0
KDO2 060305Z 34012KT 12/06 A3023 RMK A01 T01210062  RH  067%=      5-min Rain = 0
KDO2 060306Z 34011KT 12/06 A3023 RMK A01 T01210062  RH  067%=      5-min Rain = 0
KDO2 060307Z 34009KT 12/06 A3023 RMK A01 T01220062  RH  067%=      5-min Rain = 0
KDO2 060308Z 33011KT 12/06 A3023 RMK A01 T01210062  RH  067%=      5-min Rain = 0
KDO2 060309Z 34011KT 12/06 A3024 RMK A01 T01210062  RH  067%=      5-min Rain = 0
KDO2 060310Z 34012KT 12/06 A3024 RMK A01 T01210062  RH  067%=      5-min Rain = 0
KDO2 060311Z 34013KT 12/06 A3024 RMK A01 T01210062  RH  067%=      5-min Rain = 0
KDO2 060312Z 34011KT 12/06 A3024 RMK A01 T01220062  RH  067%=      5-min Rain = 0
KDO2 060313Z 34012KT 12/06 A3024 RMK A01 T01210062  RH  067%=      5-min Rain = 0
KDO2 060314Z 33012KT 12/06 A3024 RMK A01 T01220062  RH  067%=      5-min Rain = 0
KDO2 060315Z 34012KT 12/06 A3024 RMK A01 T01210062  RH  067%=      5-min Rain = 0
KDO2 060316Z 34014KT 12/06 A3024 RMK A01 T01210062  RH  067%=      5-min Rain = 0
KDO2 060317Z 34013KT 12/06 A3024 RMK A01 T01210062  RH  067%=      5-min Rain = 0
KDO2 060318Z 34014KT 12/06 A3024 RMK A01 T01210062  RH  067%=      5-min Rain = 0
KDO2 060319Z 33011KT 12/06 A3024 RMK A01 T01210062  RH  067%=      5-min Rain = 0
KDO2 060320Z 33011KT 12/06 A3024 RMK A01 T01210062  RH  067%=      5-min Rain = 0
KDO2 060321Z 33011KT 12/06 A3024 RMK A01 T01210062  RH  067%=      5-min Rain = 0
KDO2 060322Z 33011KT 12/06 A3024 RMK A01 T01210062  RH  067%=      5-min Rain = 0
KDO2 060323Z 34012KT 12/06 A3024 RMK A01 T01210062  RH  067%=      5-min Rain = 0
KDO2 060324Z 33013KT 12/06 A3024 RMK A01 T01210062  RH  067%=      5-min Rain = 0
KDO2 060325Z 34012KT 12/06 A3024 RMK A01 T01210062  RH  067%=      5-min Rain = 0
KDO2 060326Z 34014KT 12/06 A3024 RMK A01 T01210062  RH  067%=      5-min Rain = 0
KDO2 060327Z 34014KT 12/06 A3024 RMK A01 T01210062  RH  067%=      5-min Rain = 0
KDO2 060328Z 34013KT 12/06 A3024 RMK A01 T01210062  RH  067%=      5-min Rain = 0
KDO2 060329Z 34012KT 12/06 A3024 RMK A01 T01210062  RH  067%=      5-min Rain = 0
KDO2 060330Z 34011KT 12/06 A3024 RMK A01 T01210062  RH  067%=      5-min Rain = 0
KDO2 060331Z 34011KT 12/06 A3024 RMK A01 T01210062  RH  067%=      5-min Rain = 0
KDO2 060332Z 34014KT 12/06 A3024 RMK A01 T01220062  RH  067%=      5-min Rain = 0
KDO2 060333Z 33015KT 12/06 A3024 RMK A01 T01210062  RH  067%=      5-min Rain = 0
KDO2 060334Z 34014KT 12/06 A3024 RMK A01 T01210061  RH  067%=      5-min Rain = 0
KDO2 060335Z 34013KT 12/06 A3024 RMK A01 T01220062  RH  067%=      5-min Rain = 0
KDO2 060336Z 34012KT 12/06 A3024 RMK A01 T01220062  RH  067%=      5-min Rain = 0
KDO2 060337Z 34013KT 12/06 A3024 RMK A01 T01220062  RH  067%=      5-min Rain = 0
KDO2 060338Z 34011KT 12/06 A3024 RMK A01 T01220062  RH  067%=      5-min Rain = 0
KDO2 060339Z 34011KT 12/06 A3024 RMK A01 T01220062  RH  067%=      5-min Rain = 0
KDO2 060340Z 33012KT 12/06 A3024 RMK A01 T01220062  RH  067%=      5-min Rain = 0
KDO2 060341Z 34010KT 12/06 A3024 RMK A01 T01220062  RH  067%=      5-min Rain = 0
KDO2 060342Z 34011KT 12/06 A3025 RMK A01 T01220062  RH  067%=      5-min Rain = 0
KDO2 060343Z 34012KT 12/06 A3025 RMK A01 T01220062  RH  067%=      5-min Rain = 0
KDO2 060344Z 34010KT 12/06 A3025 RMK A01 T01220062  RH  067%=      5-min Rain = 0
KDO2 060345Z 34010KT 12/06 A3025 RMK A01 T01220062  RH  067%=      5-min Rain = 0
KDO2 060346Z 34012KT 12/06 A3025 RMK A01 T01220062  RH  067%=      5-min Rain = 0
KDO2 060347Z 34011KT 12/06 A3025 RMK A01 T01220062  RH  067%=      5-min Rain = 0
KDO2 060348Z 34012KT 12/06 A3025 RMK A01 T01220062  RH  067%=      5-min Rain = 0
KDO2 060349Z 34011KT 12/06 A3025 RMK A01 T01220061  RH  067%=      5-min Rain = 0
KDO2 060350Z 34011KT 12/06 A3025 RMK A01 T01220062  RH  067%=      5-min Rain = 0
KDO2 060351Z 34010KT 12/06 A3025 RMK A01 T01220062  RH  067%=      5-min Rain = 0
KDO2 060352Z 34009KT 12/06 A3025 RMK A01 T01220062  RH  067%=      5-min Rain = 0
KDO2 060353Z 35011KT 12/06 A3025 RMK A01 T01220062  RH  067%=      5-min Rain = 0
KDO2 060354Z 34010KT 12/06 A3025 RMK A01 T01220062  RH  067%=      5-min Rain = 0
KDO2 060355Z 33011KT 12/06 A3025 RMK A01 T01220061  RH  067%=      5-min Rain = 0
KDO2 060356Z 34011KT 12/06 A3025 RMK A01 T01220061  RH  067%=      5-min Rain = 0
KDO2 060357Z 34011KT 12/06 A3025 RMK A01 T01220062  RH  067%=      5-min Rain = 0
KDO2 060358Z 34010KT 12/06 A3025 RMK A01 T01220062  RH  067%=      5-min Rain = 0
KDO2 060359Z 34011KT 12/06 A3025 RMK A01 T01220062  RH  067%=      5-min Rain = 0
KDO2 060400Z 35010KT 12/06 A3025 RMK A01 T01220062  RH  067%=      5-min Rain = 0
KDO2 060401Z 35008KT 12/06 A3025 RMK A01 T01220062  RH  067%=      5-min Rain = 0
KDO2 060402Z 34009KT 12/06 A3025 RMK A01 T01210062  RH  067%=      5-min Rain = 0
KDO2 060403Z 34010KT 12/06 A3025 RMK A01 T01210062  RH  067%=      5-min Rain = 0
KDO2 060404Z 34009KT 12/06 A3025 RMK A01 T01210062  RH  067%=      5-min Rain = 0
KDO2 060405Z 35009KT 12/06 A3025 RMK A01 T01210062  RH  067%=      5-min Rain = 0
KDO2 060406Z 35011KT 12/06 A3025 RMK A01 T01210062  RH  067%=      5-min Rain = 0
KDO2 060407Z 35010KT 12/06 A3025 RMK A01 T01220062  RH  067%=      5-min Rain = 0
KDO2 060408Z 35010KT 12/06 A3025 RMK A01 T01210062  RH  067%=      5-min Rain = 0
KDO2 060409Z 34010KT 12/06 A3025 RMK A01 T01210062  RH  067%=      5-min Rain = 0
KDO2 060410Z 34008KT 12/06 A3025 RMK A01 T01210062  RH  067%=      5-min Rain = 0
KDO2 060411Z 35010KT 12/06 A3025 RMK A01 T01210062  RH  067%=      5-min Rain = 0
KDO2 060412Z 35011KT 12/06 A3025 RMK A01 T01210062  RH  067%=      5-min Rain = 0
KDO2 060413Z 35011KT 12/06 A3025 RMK A01 T01210062  RH  067%=      5-min Rain = 0
KDO2 060414Z 34009KT 12/06 A3025 RMK A01 T01220062  RH  067%=      5-min Rain = 0
KDO2 060415Z 34010KT 12/06 A3025 RMK A01 T01210062  RH  067%=      5-min Rain = 0
KDO2 060416Z 34010KT 12/06 A3025 RMK A01 T01210062  RH  067%=      5-min Rain = 0
KDO2 060417Z 35011KT 12/06 A3025 RMK A01 T01210062  RH  067%=      5-min Rain = 0
KDO2 060418Z 35011KT 12/06 A3025 RMK A01 T01220062  RH  067%=      5-min Rain = 0
KDO2 060419Z 35009KT 12/06 A3025 RMK A01 T01210061  RH  067%=      5-min Rain = 0
KDO2 060420Z 35011KT 12/06 A3025 RMK A01 T01220062  RH  067%=      5-min Rain = 0
KDO2 060421Z 35010KT 12/06 A3025 RMK A01 T01220062  RH  067%=      5-min Rain = 0
KDO2 060422Z 34010KT 12/06 A3025 RMK A01 T01220062  RH  067%=      5-min Rain = 0
KDO2 060423Z 35010KT 12/06 A3025 RMK A01 T01220062  RH  067%=      5-min Rain = 0
KDO2 060424Z 34009KT 12/06 A3025 RMK A01 T01220062  RH  067%=      5-min Rain = 0
KDO2 060425Z 35011KT 12/06 A3025 RMK A01 T01220062  RH  067%=      5-min Rain = 0
KDO2 060426Z 35010KT 12/06 A3025 RMK A01 T01220062  RH  067%=      5-min Rain = 0
KDO2 060427Z 35011KT 12/06 A3025 RMK A01 T01220062  RH  067%=      5-min Rain = 0
KDO2 060428Z 34009KT 12/06 A3025 RMK A01 T01220062  RH  067%=      5-min Rain = 0
KDO2 060429Z 34009KT 12/06 A3025 RMK A01 T01220062  RH  067%=      5-min Rain = 0
KDO2 060430Z 34009KT 12/06 A3025 RMK A01 T01220062  RH  067%=      5-min Rain = 0
KDO2 060431Z 34008KT 12/06 A3026 RMK A01 T01220062  RH  067%=      5-min Rain = 0
KDO2 060432Z 34010KT 12/06 A3026 RMK A01 T01220062  RH  067%=      5-min Rain = 0
KDO2 060433Z 34010KT 12/06 A3026 RMK A01 T01220062  RH  067%=      5-min Rain = 0
KDO2 060434Z 34010KT 12/06 A3026 RMK A01 T01220062  RH  067%=      5-min Rain = 0
KDO2 060435Z 34009KT 12/06 A3026 RMK A01 T01220062  RH  067%=      5-min Rain = 0
KDO2 060436Z 34009KT 12/06 A3026 RMK A01 T01220062  RH  067%=      5-min Rain = 0
KDO2 060437Z 34011KT 12/06 A3026 RMK A01 T01210062  RH  067%=      5-min Rain = 0
KDO2 060438Z 34011KT 12/06 A3026 RMK A01 T01220062  RH  067%=      5-min Rain = 0
KDO2 060439Z 35010KT 12/06 A3026 RMK A01 T01210062  RH  067%=      5-min Rain = 0
KDO2 060440Z 34010KT 12/06 A3026 RMK A01 T01210062  RH  067%=      5-min Rain = 0
KDO2 060441Z 35009KT 12/06 A3026 RMK A01 T01210062  RH  067%=      5-min Rain = 0
KDO2 060442Z 35008KT 12/06 A3026 RMK A01 T01210062  RH  067%=      5-min Rain = 0
KDO2 060443Z 34009KT 12/06 A3026 RMK A01 T01210063  RH  067%=      5-min Rain = 0
KDO2 060444Z 34009KT 12/06 A3026 RMK A01 T01220063  RH  067%=      5-min Rain = 0
KDO2 060445Z 35008KT 12/06 A3026 RMK A01 T01210062  RH  067%=      5-min Rain = 0
KDO2 060446Z 34010KT 12/06 A3026 RMK A01 T01210062  RH  067%=      5-min Rain = 0
KDO2 060447Z 34009KT 12/06 A3026 RMK A01 T01210062  RH  067%=      5-min Rain = 0
KDO2 060448Z 34008KT 12/06 A3026 RMK A01 T01210062  RH  067%=      5-min Rain = 0
KDO2 060449Z 34009KT 12/06 A3026 RMK A01 T01210062  RH  067%=      5-min Rain = 0
KDO2 060450Z 35008KT 12/06 A3026 RMK A01 T01210063  RH  067%=      5-min Rain = 0
KDO2 060451Z 35010KT 12/06 A3026 RMK A01 T01210062  RH  067%=      5-min Rain = 0
KDO2 060452Z 34009KT 12/06 A3026 RMK A01 T01210062  RH  067%=      5-min Rain = 0
KDO2 060453Z 35009KT 12/06 A3026 RMK A01 T01210062  RH  067%=      5-min Rain = 0
KDO2 060454Z 35008KT 12/06 A3026 RMK A01 T01210062  RH  067%=      5-min Rain = 0
KDO2 060455Z 34008KT 12/06 A3026 RMK A01 T01210062  RH  067%=      5-min Rain = 0
KDO2 060456Z 35008KT 12/06 A3026 RMK A01 T01210062  RH  067%=      5-min Rain = 0
KDO2 060457Z 35010KT 12/06 A3026 RMK A01 T01210063  RH  068%=      5-min Rain = 0
KDO2 060458Z 35009KT 12/06 A3026 RMK A01 T01210062  RH  067%=      5-min Rain = 0
KDO2 060459Z 35009KT 12/06 A3026 RMK A01 T01210062  RH  067%=      5-min Rain = 0
KDO2 060500Z 35010KT 12/06 A3026 RMK A01 T01210063  RH  067%=      5-min Rain = 0
KDO2 060501Z 35012KT 12/06 A3026 RMK A01 T01210062  RH  067%=      5-min Rain = 0
KDO2 060502Z 35011KT 12/06 A3026 RMK A01 T01210062  RH  067%=      5-min Rain = 0
KDO2 060503Z 35009KT 12/06 A3025 RMK A01 T01210062  RH  067%=      5-min Rain = 0
KDO2 060504Z 35008KT 12/06 A3025 RMK A01 T01210062  RH  067%=      5-min Rain = 0
KDO2 060505Z 34008KT 12/06 A3025 RMK A01 T01210062  RH  067%=      5-min Rain = 0
KDO2 060506Z 35008KT 12/06 A3025 RMK A01 T01210062  RH  067%=      5-min Rain = 0
KDO2 060507Z 34008KT 12/06 A3025 RMK A01 T01210062  RH  067%=      5-min Rain = 0
KDO2 060508Z 35008KT 12/06 A3025 RMK A01 T01210062  RH  067%=      5-min Rain = 0
KDO2 060509Z 34008KT 12/06 A3025 RMK A01 T01210062  RH  067%=      5-min Rain = 0
KDO2 060510Z 35010KT 12/06 A3025 RMK A01 T01210062  RH  067%=      5-min Rain = 0
KDO2 060511Z 34009KT 12/06 A3025 RMK A01 T01210062  RH  067%=      5-min Rain = 0
KDO2 060512Z 34009KT 12/06 A3025 RMK A01 T01210062  RH  067%=      5-min Rain = 0
KDO2 060513Z 34008KT 12/06 A3025 RMK A01 T01210062  RH  067%=      5-min Rain = 0
KDO2 060514Z 34008KT 12/06 A3025 RMK A01 T01210062  RH  067%=      5-min Rain = 0
KDO2 060515Z 34009KT 12/06 A3025 RMK A01 T01200062  RH  067%=      5-min Rain = 0
KDO2 060516Z 35011KT 12/06 A3025 RMK A01 T01200062  RH  067%=      5-min Rain = 0
KDO2 060517Z 34009KT 12/06 A3025 RMK A01 T01210062  RH  067%=      5-min Rain = 0
KDO2 060518Z 34008KT 12/06 A3025 RMK A01 T01200061  RH  067%=      5-min Rain = 0
KDO2 060519Z 34009KT 12/06 A3025 RMK A01 T01210062  RH  067%=      5-min Rain = 0
KDO2 060520Z 34011KT 12/06 A3025 RMK A01 T01210062  RH  067%=      5-min Rain = 0
KDO2 060521Z 34009KT 12/06 A3025 RMK A01 T01210062  RH  067%=      5-min Rain = 0
KDO2 060522Z 34009KT 12/06 A3025 RMK A01 T01210062  RH  067%=      5-min Rain = 0
KDO2 060523Z 33008KT 12/06 A3025 RMK A01 T01210062  RH  068%=      5-min Rain = 0
KDO2 060524Z 33008KT 12/06 A3025 RMK A01 T01200062  RH  068%=      5-min Rain = 0
KDO2 060525Z 33008KT 12/06 A3025 RMK A01 T01200063  RH  068%=      5-min Rain = 0
KDO2 060526Z 33008KT 12/06 A3025 RMK A01 T01200063  RH  068%=      5-min Rain = 0
KDO2 060527Z 33008KT 12/06 A3025 RMK A01 T01200063  RH  068%=      5-min Rain = 0
KDO2 060528Z 33008KT 12/06 A3025 RMK A01 T01200063  RH  068%=      5-min Rain = 0
KDO2 060529Z 33009KT 12/06 A3025 RMK A01 T01190063  RH  068%=      5-min Rain = 0
KDO2 060530Z 34009KT 12/06 A3025 RMK A01 T01190063  RH  068%=      5-min Rain = 0
KDO2 060531Z 33008KT 12/06 A3025 RMK A01 T01190063  RH  068%=      5-min Rain = 0
KDO2 060532Z 33007KT 12/06 A3025 RMK A01 T01190063  RH  068%=      5-min Rain = 0
KDO2 060533Z 34007KT 12/06 A3025 RMK A01 T01190062  RH  068%=      5-min Rain = 0
KDO2 060534Z 34007KT 12/06 A3025 RMK A01 T01190063  RH  068%=      5-min Rain = 0
KDO2 060535Z 33008KT 12/06 A3025 RMK A01 T01180062  RH  069%=      5-min Rain = 0
KDO2 060536Z 34008KT 12/06 A3025 RMK A01 T01180062  RH  069%=      5-min Rain = 0
KDO2 060537Z 34009KT 12/06 A3025 RMK A01 T01180062  RH  069%=      5-min Rain = 0
KDO2 060538Z 34008KT 12/06 A3025 RMK A01 T01180062  RH  068%=      5-min Rain = 0
KDO2 060539Z 34008KT 12/06 A3025 RMK A01 T01180062  RH  068%=      5-min Rain = 0
KDO2 060540Z 33009KT 12/06 A3025 RMK A01 T01180062  RH  068%=      5-min Rain = 0
KDO2 060541Z 33009KT 12/06 A3025 RMK A01 T01180062  RH  068%=      5-min Rain = 0
KDO2 060542Z 33008KT 12/06 A3025 RMK A01 T01180062  RH  068%=      5-min Rain = 0
KDO2 060543Z 34008KT 12/06 A3025 RMK A01 T01180062  RH  068%=      5-min Rain = 0
KDO2 060544Z 33007KT 12/06 A3025 RMK A01 T01180062  RH  068%=      5-min Rain = 0
KDO2 060545Z 34008KT 12/06 A3025 RMK A01 T01180062  RH  068%=      5-min Rain = 0
KDO2 060546Z 33008KT 12/06 A3025 RMK A01 T01180062  RH  068%=      5-min Rain = 0
KDO2 060547Z 33007KT 12/06 A3025 RMK A01 T01180062  RH  068%=      5-min Rain = 0
KDO2 060548Z 33007KT 12/06 A3025 RMK A01 T01180061  RH  068%=      5-min Rain = 0
KDO2 060549Z 33006KT 12/06 A3025 RMK A01 T01180061  RH  068%=      5-min Rain = 0
KDO2 060550Z 33007KT 12/06 A3025 RMK A01 T01170061  RH  068%=      5-min Rain = 0
KDO2 060551Z 33007KT 12/06 A3025 RMK A01 T01170061  RH  069%=      5-min Rain = 0
KDO2 060552Z 33006KT 12/06 A3025 RMK A01 T01170061  RH  069%=      5-min Rain = 0
KDO2 060553Z 33006KT 12/06 A3025 RMK A01 T01170061  RH  069%=      5-min Rain = 0
KDO2 060554Z 33007KT 12/06 A3025 RMK A01 T01160060  RH  069%=      5-min Rain = 0
KDO2 060555Z 33008KT 12/06 A3025 RMK A01 T01160061  RH  069%=      5-min Rain = 0
KDO2 060556Z 33008KT 12/06 A3025 RMK A01 T01150060  RH  069%=      5-min Rain = 0
KDO2 060557Z 33008KT 12/06 A3025 RMK A01 T01150060  RH  069%=      5-min Rain = 0
KDO2 060558Z 33008KT 12/06 A3025 RMK A01 T01150060  RH  069%=      5-min Rain = 0
KDO2 060559Z 33008KT 12/06 A3025 RMK A01 T01150060  RH  069%=      5-min Rain = 0

Page generated in 0.0649 seconds.